<?xml version="1.0" encoding="UTF-8" standalone="no" ?>
<gpx xmlns="http://www.topografix.com/GPX/1/1" xmlns:xsi="http://www.w3.org/2001/XMLSchema-instance" xsi:schemaLocation="http://www.topografix.com/GPX/1/1 http://www.topografix.com/GPX/1/1/gpx.xsd" version="1.1" creator="VisuGPX - https://www.visugpx.com">
  <metadata>
    <name>Piégon-Pas de Maneyrolle-Gros Mourre- Piégon</name>
    <desc><![CDATA[Parcours rando, Trail, VTT de 8.5kms qui passe par le village des géants.
400m de D ]]></desc>
  </metadata>
  <trk>
    <name><![CDATA[19-JUIL-13 08:13:26]]></name>
    <trkseg>
      <trkpt lat="44.30669" lon="5.14024">
        <ele>443.31</ele>
        <time>2013-07-19T05:05:54Z</time>
      </trkpt>
      <trkpt lat="44.30669" lon="5.14024">
        <ele>439.94</ele>
        <time>2013-07-19T05:05:55Z</time>
      </trkpt>
      <trkpt lat="44.30667" lon="5.14028">
        <ele>440.9</ele>
        <time>2013-07-19T05:06:00Z</time>
      </trkpt>
      <trkpt lat="44.30666" lon="5.14029">
        <ele>440.9</ele>
        <time>2013-07-19T05:06:01Z</time>
      </trkpt>
      <trkpt lat="44.30654" lon="5.14052">
        <ele>442.82</ele>
        <time>2013-07-19T05:06:13Z</time>
      </trkpt>
      <trkpt lat="44.30651" lon="5.14061">
        <ele>443.31</ele>
        <time>2013-07-19T05:06:17Z</time>
      </trkpt>
      <trkpt lat="44.30646" lon="5.14075">
        <ele>443.79</ele>
        <time>2013-07-19T05:06:22Z</time>
      </trkpt>
      <trkpt lat="44.30645" lon="5.14078">
        <ele>444.75</ele>
        <time>2013-07-19T05:06:23Z</time>
      </trkpt>
      <trkpt lat="44.3063" lon="5.14109">
        <ele>447.63</ele>
        <time>2013-07-19T05:06:37Z</time>
      </trkpt>
      <trkpt lat="44.30603" lon="5.14128">
        <ele>448.11</ele>
        <time>2013-07-19T05:06:52Z</time>
      </trkpt>
      <trkpt lat="44.30576" lon="5.14149">
        <ele>448.59</ele>
        <time>2013-07-19T05:07:06Z</time>
      </trkpt>
      <trkpt lat="44.30552" lon="5.14168">
        <ele>450.52</ele>
        <time>2013-07-19T05:07:19Z</time>
      </trkpt>
      <trkpt lat="44.30549" lon="5.14174">
        <ele>451.48</ele>
        <time>2013-07-19T05:07:22Z</time>
      </trkpt>
      <trkpt lat="44.30546" lon="5.14178">
        <ele>451.96</ele>
        <time>2013-07-19T05:07:25Z</time>
      </trkpt>
      <trkpt lat="44.30545" lon="5.1418">
        <ele>452.92</ele>
        <time>2013-07-19T05:07:26Z</time>
      </trkpt>
      <trkpt lat="44.30536" lon="5.142">
        <ele>456.76</ele>
        <time>2013-07-19T05:07:37Z</time>
      </trkpt>
      <trkpt lat="44.30515" lon="5.14231">
        <ele>457.72</ele>
        <time>2013-07-19T05:07:52Z</time>
      </trkpt>
      <trkpt lat="44.30495" lon="5.14256">
        <ele>458.69</ele>
        <time>2013-07-19T05:08:05Z</time>
      </trkpt>
      <trkpt lat="44.30475" lon="5.14287">
        <ele>456.76</ele>
        <time>2013-07-19T05:08:18Z</time>
      </trkpt>
      <trkpt lat="44.30453" lon="5.14297">
        <ele>457.72</ele>
        <time>2013-07-19T05:08:29Z</time>
      </trkpt>
      <trkpt lat="44.30434" lon="5.14296">
        <ele>458.21</ele>
        <time>2013-07-19T05:08:39Z</time>
      </trkpt>
      <trkpt lat="44.30418" lon="5.14321">
        <ele>462.05</ele>
        <time>2013-07-19T05:08:51Z</time>
      </trkpt>
      <trkpt lat="44.30418" lon="5.14327">
        <ele>462.53</ele>
        <time>2013-07-19T05:08:53Z</time>
      </trkpt>
      <trkpt lat="44.30422" lon="5.14369">
        <ele>465.42</ele>
        <time>2013-07-19T05:09:09Z</time>
      </trkpt>
      <trkpt lat="44.30434" lon="5.14408">
        <ele>468.3</ele>
        <time>2013-07-19T05:09:26Z</time>
      </trkpt>
      <trkpt lat="44.30432" lon="5.14439">
        <ele>469.26</ele>
        <time>2013-07-19T05:09:41Z</time>
      </trkpt>
      <trkpt lat="44.30433" lon="5.14441">
        <ele>468.3</ele>
        <time>2013-07-19T05:09:56Z</time>
      </trkpt>
      <trkpt lat="44.30432" lon="5.14445">
        <ele>467.34</ele>
        <time>2013-07-19T05:10:06Z</time>
      </trkpt>
      <trkpt lat="44.30432" lon="5.14447">
        <ele>467.82</ele>
        <time>2013-07-19T05:10:07Z</time>
      </trkpt>
      <trkpt lat="44.30431" lon="5.1445">
        <ele>467.34</ele>
        <time>2013-07-19T05:10:08Z</time>
      </trkpt>
      <trkpt lat="44.30431" lon="5.14452">
        <ele>467.34</ele>
        <time>2013-07-19T05:10:09Z</time>
      </trkpt>
      <trkpt lat="44.3043" lon="5.14454">
        <ele>467.34</ele>
        <time>2013-07-19T05:10:10Z</time>
      </trkpt>
      <trkpt lat="44.30429" lon="5.14457">
        <ele>466.86</ele>
        <time>2013-07-19T05:10:11Z</time>
      </trkpt>
      <trkpt lat="44.30428" lon="5.14459">
        <ele>467.34</ele>
        <time>2013-07-19T05:10:12Z</time>
      </trkpt>
      <trkpt lat="44.30427" lon="5.14462">
        <ele>467.34</ele>
        <time>2013-07-19T05:10:13Z</time>
      </trkpt>
      <trkpt lat="44.30425" lon="5.14465">
        <ele>466.86</ele>
        <time>2013-07-19T05:10:14Z</time>
      </trkpt>
      <trkpt lat="44.30423" lon="5.14467">
        <ele>466.86</ele>
        <time>2013-07-19T05:10:15Z</time>
      </trkpt>
      <trkpt lat="44.30421" lon="5.14468">
        <ele>465.9</ele>
        <time>2013-07-19T05:10:16Z</time>
      </trkpt>
      <trkpt lat="44.30419" lon="5.14469">
        <ele>466.86</ele>
        <time>2013-07-19T05:10:17Z</time>
      </trkpt>
      <trkpt lat="44.30417" lon="5.14468">
        <ele>466.86</ele>
        <time>2013-07-19T05:10:18Z</time>
      </trkpt>
      <trkpt lat="44.30415" lon="5.14467">
        <ele>467.82</ele>
        <time>2013-07-19T05:10:19Z</time>
      </trkpt>
      <trkpt lat="44.30393" lon="5.14446">
        <ele>469.26</ele>
        <time>2013-07-19T05:10:34Z</time>
      </trkpt>
      <trkpt lat="44.30369" lon="5.14462">
        <ele>471.18</ele>
        <time>2013-07-19T05:10:48Z</time>
      </trkpt>
      <trkpt lat="44.30363" lon="5.14462">
        <ele>472.63</ele>
        <time>2013-07-19T05:10:52Z</time>
      </trkpt>
      <trkpt lat="44.30364" lon="5.14432">
        <ele>475.51</ele>
        <time>2013-07-19T05:11:05Z</time>
      </trkpt>
      <trkpt lat="44.30364" lon="5.1443">
        <ele>475.03</ele>
        <time>2013-07-19T05:11:06Z</time>
      </trkpt>
      <trkpt lat="44.3034" lon="5.14417">
        <ele>477.91</ele>
        <time>2013-07-19T05:11:20Z</time>
      </trkpt>
      <trkpt lat="44.30324" lon="5.14398">
        <ele>481.28</ele>
        <time>2013-07-19T05:11:33Z</time>
      </trkpt>
      <trkpt lat="44.30324" lon="5.14395">
        <ele>481.28</ele>
        <time>2013-07-19T05:11:34Z</time>
      </trkpt>
      <trkpt lat="44.30324" lon="5.14392">
        <ele>481.28</ele>
        <time>2013-07-19T05:11:35Z</time>
      </trkpt>
      <trkpt lat="44.30324" lon="5.14389">
        <ele>481.28</ele>
        <time>2013-07-19T05:11:36Z</time>
      </trkpt>
      <trkpt lat="44.30324" lon="5.14387">
        <ele>481.28</ele>
        <time>2013-07-19T05:11:37Z</time>
      </trkpt>
      <trkpt lat="44.30325" lon="5.14384">
        <ele>480.8</ele>
        <time>2013-07-19T05:11:38Z</time>
      </trkpt>
      <trkpt lat="44.30329" lon="5.14365">
        <ele>479.84</ele>
        <time>2013-07-19T05:11:49Z</time>
      </trkpt>
      <trkpt lat="44.30322" lon="5.14354">
        <ele>479.35</ele>
        <time>2013-07-19T05:12:05Z</time>
      </trkpt>
      <trkpt lat="44.30318" lon="5.14346">
        <ele>478.87</ele>
        <time>2013-07-19T05:12:10Z</time>
      </trkpt>
      <trkpt lat="44.30317" lon="5.14344">
        <ele>478.39</ele>
        <time>2013-07-19T05:12:11Z</time>
      </trkpt>
      <trkpt lat="44.30316" lon="5.14341">
        <ele>479.35</ele>
        <time>2013-07-19T05:12:12Z</time>
      </trkpt>
      <trkpt lat="44.30315" lon="5.14337">
        <ele>479.35</ele>
        <time>2013-07-19T05:12:13Z</time>
      </trkpt>
      <trkpt lat="44.30314" lon="5.14335">
        <ele>479.84</ele>
        <time>2013-07-19T05:12:14Z</time>
      </trkpt>
      <trkpt lat="44.30307" lon="5.14286">
        <ele>481.28</ele>
        <time>2013-07-19T05:12:29Z</time>
      </trkpt>
      <trkpt lat="44.30306" lon="5.14283">
        <ele>480.8</ele>
        <time>2013-07-19T05:12:30Z</time>
      </trkpt>
      <trkpt lat="44.30306" lon="5.1428">
        <ele>481.28</ele>
        <time>2013-07-19T05:12:31Z</time>
      </trkpt>
      <trkpt lat="44.30305" lon="5.14277">
        <ele>481.28</ele>
        <time>2013-07-19T05:12:32Z</time>
      </trkpt>
      <trkpt lat="44.30303" lon="5.14275">
        <ele>480.8</ele>
        <time>2013-07-19T05:12:33Z</time>
      </trkpt>
      <trkpt lat="44.30302" lon="5.14274">
        <ele>480.8</ele>
        <time>2013-07-19T05:12:34Z</time>
      </trkpt>
      <trkpt lat="44.30268" lon="5.1426">
        <ele>483.68</ele>
        <time>2013-07-19T05:12:53Z</time>
      </trkpt>
      <trkpt lat="44.30267" lon="5.14261">
        <ele>484.16</ele>
        <time>2013-07-19T05:12:57Z</time>
      </trkpt>
      <trkpt lat="44.3027" lon="5.14264">
        <ele>485.12</ele>
        <time>2013-07-19T05:13:00Z</time>
      </trkpt>
      <trkpt lat="44.30273" lon="5.14269">
        <ele>485.6</ele>
        <time>2013-07-19T05:13:03Z</time>
      </trkpt>
      <trkpt lat="44.30274" lon="5.14271">
        <ele>485.6</ele>
        <time>2013-07-19T05:13:04Z</time>
      </trkpt>
      <trkpt lat="44.30274" lon="5.14273">
        <ele>486.08</ele>
        <time>2013-07-19T05:13:05Z</time>
      </trkpt>
      <trkpt lat="44.30275" lon="5.14276">
        <ele>486.56</ele>
        <time>2013-07-19T05:13:06Z</time>
      </trkpt>
      <trkpt lat="44.30276" lon="5.14278">
        <ele>487.05</ele>
        <time>2013-07-19T05:13:07Z</time>
      </trkpt>
      <trkpt lat="44.3028" lon="5.14307">
        <ele>489.93</ele>
        <time>2013-07-19T05:13:19Z</time>
      </trkpt>
      <trkpt lat="44.30279" lon="5.14315">
        <ele>490.41</ele>
        <time>2013-07-19T05:13:22Z</time>
      </trkpt>
      <trkpt lat="44.30271" lon="5.14347">
        <ele>491.85</ele>
        <time>2013-07-19T05:13:36Z</time>
      </trkpt>
      <trkpt lat="44.30267" lon="5.14386">
        <ele>494.26</ele>
        <time>2013-07-19T05:13:50Z</time>
      </trkpt>
      <trkpt lat="44.30263" lon="5.14418">
        <ele>497.14</ele>
        <time>2013-07-19T05:14:03Z</time>
      </trkpt>
      <trkpt lat="44.30261" lon="5.14455">
        <ele>499.54</ele>
        <time>2013-07-19T05:14:17Z</time>
      </trkpt>
      <trkpt lat="44.3026" lon="5.14489">
        <ele>501.95</ele>
        <time>2013-07-19T05:14:29Z</time>
      </trkpt>
      <trkpt lat="44.30259" lon="5.14518">
        <ele>502.43</ele>
        <time>2013-07-19T05:14:40Z</time>
      </trkpt>
      <trkpt lat="44.30254" lon="5.14547">
        <ele>503.39</ele>
        <time>2013-07-19T05:14:49Z</time>
      </trkpt>
      <trkpt lat="44.30253" lon="5.14549">
        <ele>502.43</ele>
        <time>2013-07-19T05:14:50Z</time>
      </trkpt>
      <trkpt lat="44.30252" lon="5.14553">
        <ele>502.91</ele>
        <time>2013-07-19T05:14:51Z</time>
      </trkpt>
      <trkpt lat="44.30251" lon="5.14556">
        <ele>502.91</ele>
        <time>2013-07-19T05:14:52Z</time>
      </trkpt>
      <trkpt lat="44.3025" lon="5.1456">
        <ele>503.87</ele>
        <time>2013-07-19T05:14:53Z</time>
      </trkpt>
      <trkpt lat="44.3025" lon="5.14562">
        <ele>502.91</ele>
        <time>2013-07-19T05:14:54Z</time>
      </trkpt>
      <trkpt lat="44.30247" lon="5.14593">
        <ele>506.27</ele>
        <time>2013-07-19T05:15:06Z</time>
      </trkpt>
      <trkpt lat="44.30248" lon="5.14595">
        <ele>505.79</ele>
        <time>2013-07-19T05:15:07Z</time>
      </trkpt>
      <trkpt lat="44.30248" lon="5.14597">
        <ele>505.79</ele>
        <time>2013-07-19T05:15:08Z</time>
      </trkpt>
      <trkpt lat="44.30251" lon="5.14617">
        <ele>509.16</ele>
        <time>2013-07-19T05:15:17Z</time>
      </trkpt>
      <trkpt lat="44.30263" lon="5.1465">
        <ele>512.52</ele>
        <time>2013-07-19T05:15:31Z</time>
      </trkpt>
      <trkpt lat="44.30274" lon="5.14687">
        <ele>515.4</ele>
        <time>2013-07-19T05:15:46Z</time>
      </trkpt>
      <trkpt lat="44.3029" lon="5.14727">
        <ele>517.33</ele>
        <time>2013-07-19T05:16:03Z</time>
      </trkpt>
      <trkpt lat="44.30308" lon="5.1477">
        <ele>514.92</ele>
        <time>2013-07-19T05:16:20Z</time>
      </trkpt>
      <trkpt lat="44.30311" lon="5.14781">
        <ele>513.96</ele>
        <time>2013-07-19T05:16:24Z</time>
      </trkpt>
      <trkpt lat="44.30312" lon="5.14785">
        <ele>514.44</ele>
        <time>2013-07-19T05:16:25Z</time>
      </trkpt>
      <trkpt lat="44.30312" lon="5.14788">
        <ele>514.44</ele>
        <time>2013-07-19T05:16:26Z</time>
      </trkpt>
      <trkpt lat="44.30312" lon="5.14791">
        <ele>513.96</ele>
        <time>2013-07-19T05:16:27Z</time>
      </trkpt>
      <trkpt lat="44.30312" lon="5.14794">
        <ele>514.44</ele>
        <time>2013-07-19T05:16:28Z</time>
      </trkpt>
      <trkpt lat="44.30312" lon="5.14797">
        <ele>513.96</ele>
        <time>2013-07-19T05:16:29Z</time>
      </trkpt>
      <trkpt lat="44.30313" lon="5.14801">
        <ele>513.96</ele>
        <time>2013-07-19T05:16:30Z</time>
      </trkpt>
      <trkpt lat="44.30313" lon="5.14804">
        <ele>513.96</ele>
        <time>2013-07-19T05:16:31Z</time>
      </trkpt>
      <trkpt lat="44.30313" lon="5.14807">
        <ele>513.96</ele>
        <time>2013-07-19T05:16:32Z</time>
      </trkpt>
      <trkpt lat="44.30314" lon="5.1481">
        <ele>513.96</ele>
        <time>2013-07-19T05:16:33Z</time>
      </trkpt>
      <trkpt lat="44.30322" lon="5.14858">
        <ele>515.4</ele>
        <time>2013-07-19T05:16:48Z</time>
      </trkpt>
      <trkpt lat="44.30342" lon="5.14886">
        <ele>514.92</ele>
        <time>2013-07-19T05:17:02Z</time>
      </trkpt>
      <trkpt lat="44.3036" lon="5.14921">
        <ele>516.37</ele>
        <time>2013-07-19T05:17:16Z</time>
      </trkpt>
      <trkpt lat="44.30367" lon="5.14962">
        <ele>519.73</ele>
        <time>2013-07-19T05:17:30Z</time>
      </trkpt>
      <trkpt lat="44.30383" lon="5.14994">
        <ele>522.13</ele>
        <time>2013-07-19T05:17:44Z</time>
      </trkpt>
      <trkpt lat="44.30387" lon="5.15039">
        <ele>524.54</ele>
        <time>2013-07-19T05:17:58Z</time>
      </trkpt>
      <trkpt lat="44.30383" lon="5.15062">
        <ele>527.42</ele>
        <time>2013-07-19T05:18:07Z</time>
      </trkpt>
      <trkpt lat="44.30378" lon="5.15091">
        <ele>529.34</ele>
        <time>2013-07-19T05:18:18Z</time>
      </trkpt>
      <trkpt lat="44.30376" lon="5.15105">
        <ele>530.3</ele>
        <time>2013-07-19T05:18:24Z</time>
      </trkpt>
      <trkpt lat="44.30375" lon="5.15107">
        <ele>531.27</ele>
        <time>2013-07-19T05:18:25Z</time>
      </trkpt>
      <trkpt lat="44.30375" lon="5.1511">
        <ele>531.27</ele>
        <time>2013-07-19T05:18:26Z</time>
      </trkpt>
      <trkpt lat="44.30374" lon="5.15112">
        <ele>531.75</ele>
        <time>2013-07-19T05:18:27Z</time>
      </trkpt>
      <trkpt lat="44.30374" lon="5.15114">
        <ele>531.27</ele>
        <time>2013-07-19T05:18:28Z</time>
      </trkpt>
      <trkpt lat="44.30367" lon="5.15151">
        <ele>534.15</ele>
        <time>2013-07-19T05:18:42Z</time>
      </trkpt>
      <trkpt lat="44.30359" lon="5.15178">
        <ele>537.51</ele>
        <time>2013-07-19T05:18:54Z</time>
      </trkpt>
      <trkpt lat="44.30349" lon="5.15207">
        <ele>540.4</ele>
        <time>2013-07-19T05:19:07Z</time>
      </trkpt>
      <trkpt lat="44.30346" lon="5.15215">
        <ele>540.88</ele>
        <time>2013-07-19T05:19:10Z</time>
      </trkpt>
      <trkpt lat="44.30345" lon="5.15218">
        <ele>540.88</ele>
        <time>2013-07-19T05:19:11Z</time>
      </trkpt>
      <trkpt lat="44.30344" lon="5.1522">
        <ele>541.36</ele>
        <time>2013-07-19T05:19:12Z</time>
      </trkpt>
      <trkpt lat="44.30342" lon="5.15225">
        <ele>542.32</ele>
        <time>2013-07-19T05:19:14Z</time>
      </trkpt>
      <trkpt lat="44.30334" lon="5.15242">
        <ele>544.24</ele>
        <time>2013-07-19T05:19:23Z</time>
      </trkpt>
      <trkpt lat="44.30332" lon="5.15244">
        <ele>544.72</ele>
        <time>2013-07-19T05:19:24Z</time>
      </trkpt>
      <trkpt lat="44.30331" lon="5.15246">
        <ele>545.69</ele>
        <time>2013-07-19T05:19:25Z</time>
      </trkpt>
      <trkpt lat="44.3033" lon="5.15248">
        <ele>544.72</ele>
        <time>2013-07-19T05:19:26Z</time>
      </trkpt>
      <trkpt lat="44.30329" lon="5.15251">
        <ele>545.2</ele>
        <time>2013-07-19T05:19:27Z</time>
      </trkpt>
      <trkpt lat="44.30329" lon="5.15254">
        <ele>545.69</ele>
        <time>2013-07-19T05:19:28Z</time>
      </trkpt>
      <trkpt lat="44.30329" lon="5.15257">
        <ele>545.69</ele>
        <time>2013-07-19T05:19:29Z</time>
      </trkpt>
      <trkpt lat="44.30328" lon="5.15258">
        <ele>545.69</ele>
        <time>2013-07-19T05:19:30Z</time>
      </trkpt>
      <trkpt lat="44.30319" lon="5.15286">
        <ele>547.13</ele>
        <time>2013-07-19T05:19:44Z</time>
      </trkpt>
      <trkpt lat="44.30318" lon="5.15292">
        <ele>546.65</ele>
        <time>2013-07-19T05:19:46Z</time>
      </trkpt>
      <trkpt lat="44.30317" lon="5.15294">
        <ele>546.65</ele>
        <time>2013-07-19T05:19:47Z</time>
      </trkpt>
      <trkpt lat="44.30316" lon="5.15297">
        <ele>546.65</ele>
        <time>2013-07-19T05:19:48Z</time>
      </trkpt>
      <trkpt lat="44.30315" lon="5.15312">
        <ele>547.61</ele>
        <time>2013-07-19T05:19:53Z</time>
      </trkpt>
      <trkpt lat="44.30328" lon="5.1534">
        <ele>549.05</ele>
        <time>2013-07-19T05:20:05Z</time>
      </trkpt>
      <trkpt lat="44.30346" lon="5.15351">
        <ele>550.49</ele>
        <time>2013-07-19T05:20:17Z</time>
      </trkpt>
      <trkpt lat="44.30369" lon="5.15347">
        <ele>552.9</ele>
        <time>2013-07-19T05:20:31Z</time>
      </trkpt>
      <trkpt lat="44.3038" lon="5.15345">
        <ele>552.41</ele>
        <time>2013-07-19T05:20:36Z</time>
      </trkpt>
      <trkpt lat="44.30382" lon="5.15346">
        <ele>553.86</ele>
        <time>2013-07-19T05:20:37Z</time>
      </trkpt>
      <trkpt lat="44.30416" lon="5.15342">
        <ele>556.74</ele>
        <time>2013-07-19T05:20:53Z</time>
      </trkpt>
      <trkpt lat="44.30452" lon="5.15334">
        <ele>558.18</ele>
        <time>2013-07-19T05:21:09Z</time>
      </trkpt>
      <trkpt lat="44.30484" lon="5.15336">
        <ele>559.62</ele>
        <time>2013-07-19T05:21:22Z</time>
      </trkpt>
      <trkpt lat="44.3051" lon="5.15354">
        <ele>561.07</ele>
        <time>2013-07-19T05:21:35Z</time>
      </trkpt>
      <trkpt lat="44.30515" lon="5.15356">
        <ele>561.55</ele>
        <time>2013-07-19T05:21:38Z</time>
      </trkpt>
      <trkpt lat="44.3054" lon="5.15334">
        <ele>562.03</ele>
        <time>2013-07-19T05:21:52Z</time>
      </trkpt>
      <trkpt lat="44.30554" lon="5.15317">
        <ele>561.07</ele>
        <time>2013-07-19T05:22:00Z</time>
      </trkpt>
      <trkpt lat="44.30557" lon="5.15316">
        <ele>561.07</ele>
        <time>2013-07-19T05:22:01Z</time>
      </trkpt>
      <trkpt lat="44.30559" lon="5.15316">
        <ele>560.59</ele>
        <time>2013-07-19T05:22:02Z</time>
      </trkpt>
      <trkpt lat="44.30581" lon="5.15324">
        <ele>562.51</ele>
        <time>2013-07-19T05:22:11Z</time>
      </trkpt>
      <trkpt lat="44.30596" lon="5.1534">
        <ele>565.39</ele>
        <time>2013-07-19T05:22:21Z</time>
      </trkpt>
      <trkpt lat="44.30608" lon="5.15364">
        <ele>565.87</ele>
        <time>2013-07-19T05:22:32Z</time>
      </trkpt>
      <trkpt lat="44.30608" lon="5.15366">
        <ele>566.83</ele>
        <time>2013-07-19T05:22:33Z</time>
      </trkpt>
      <trkpt lat="44.30608" lon="5.15368">
        <ele>566.83</ele>
        <time>2013-07-19T05:22:34Z</time>
      </trkpt>
      <trkpt lat="44.30608" lon="5.1537">
        <ele>566.83</ele>
        <time>2013-07-19T05:22:35Z</time>
      </trkpt>
      <trkpt lat="44.30608" lon="5.15374">
        <ele>566.83</ele>
        <time>2013-07-19T05:22:36Z</time>
      </trkpt>
      <trkpt lat="44.30608" lon="5.15377">
        <ele>567.32</ele>
        <time>2013-07-19T05:22:37Z</time>
      </trkpt>
      <trkpt lat="44.30608" lon="5.1538">
        <ele>566.83</ele>
        <time>2013-07-19T05:22:38Z</time>
      </trkpt>
      <trkpt lat="44.30608" lon="5.15383">
        <ele>567.32</ele>
        <time>2013-07-19T05:22:39Z</time>
      </trkpt>
      <trkpt lat="44.30609" lon="5.15386">
        <ele>567.32</ele>
        <time>2013-07-19T05:22:40Z</time>
      </trkpt>
      <trkpt lat="44.30609" lon="5.1539">
        <ele>566.83</ele>
        <time>2013-07-19T05:22:41Z</time>
      </trkpt>
      <trkpt lat="44.30609" lon="5.15394">
        <ele>567.32</ele>
        <time>2013-07-19T05:22:42Z</time>
      </trkpt>
      <trkpt lat="44.30609" lon="5.15398">
        <ele>566.83</ele>
        <time>2013-07-19T05:22:43Z</time>
      </trkpt>
      <trkpt lat="44.3061" lon="5.15442">
        <ele>568.28</ele>
        <time>2013-07-19T05:22:55Z</time>
      </trkpt>
      <trkpt lat="44.30617" lon="5.15474">
        <ele>569.24</ele>
        <time>2013-07-19T05:23:06Z</time>
      </trkpt>
      <trkpt lat="44.30642" lon="5.15502">
        <ele>568.28</ele>
        <time>2013-07-19T05:23:18Z</time>
      </trkpt>
      <trkpt lat="44.30672" lon="5.15512">
        <ele>567.32</ele>
        <time>2013-07-19T05:23:30Z</time>
      </trkpt>
      <trkpt lat="44.30683" lon="5.15524">
        <ele>567.32</ele>
        <time>2013-07-19T05:23:35Z</time>
      </trkpt>
      <trkpt lat="44.30682" lon="5.15531">
        <ele>567.8</ele>
        <time>2013-07-19T05:23:37Z</time>
      </trkpt>
      <trkpt lat="44.30678" lon="5.15541">
        <ele>567.8</ele>
        <time>2013-07-19T05:23:40Z</time>
      </trkpt>
      <trkpt lat="44.30676" lon="5.15544">
        <ele>567.8</ele>
        <time>2013-07-19T05:23:41Z</time>
      </trkpt>
      <trkpt lat="44.30674" lon="5.15546">
        <ele>568.28</ele>
        <time>2013-07-19T05:23:42Z</time>
      </trkpt>
      <trkpt lat="44.30672" lon="5.15547">
        <ele>567.8</ele>
        <time>2013-07-19T05:23:43Z</time>
      </trkpt>
      <trkpt lat="44.3067" lon="5.15549">
        <ele>568.28</ele>
        <time>2013-07-19T05:23:44Z</time>
      </trkpt>
      <trkpt lat="44.30667" lon="5.1555">
        <ele>568.76</ele>
        <time>2013-07-19T05:23:45Z</time>
      </trkpt>
      <trkpt lat="44.30653" lon="5.15559">
        <ele>569.72</ele>
        <time>2013-07-19T05:23:52Z</time>
      </trkpt>
      <trkpt lat="44.3064" lon="5.15583">
        <ele>571.64</ele>
        <time>2013-07-19T05:24:02Z</time>
      </trkpt>
      <trkpt lat="44.30646" lon="5.15608">
        <ele>572.6</ele>
        <time>2013-07-19T05:24:13Z</time>
      </trkpt>
      <trkpt lat="44.30657" lon="5.15658">
        <ele>574.04</ele>
        <time>2013-07-19T05:24:29Z</time>
      </trkpt>
      <trkpt lat="44.3066" lon="5.15701">
        <ele>575.01</ele>
        <time>2013-07-19T05:24:41Z</time>
      </trkpt>
      <trkpt lat="44.30647" lon="5.15732">
        <ele>575.01</ele>
        <time>2013-07-19T05:24:51Z</time>
      </trkpt>
      <trkpt lat="44.30632" lon="5.15762">
        <ele>577.41</ele>
        <time>2013-07-19T05:25:02Z</time>
      </trkpt>
      <trkpt lat="44.30623" lon="5.15789">
        <ele>579.81</ele>
        <time>2013-07-19T05:25:12Z</time>
      </trkpt>
      <trkpt lat="44.30614" lon="5.15811">
        <ele>581.73</ele>
        <time>2013-07-19T05:25:22Z</time>
      </trkpt>
      <trkpt lat="44.30612" lon="5.15815">
        <ele>582.7</ele>
        <time>2013-07-19T05:25:24Z</time>
      </trkpt>
      <trkpt lat="44.30611" lon="5.15818">
        <ele>582.7</ele>
        <time>2013-07-19T05:25:25Z</time>
      </trkpt>
      <trkpt lat="44.3061" lon="5.1582">
        <ele>582.7</ele>
        <time>2013-07-19T05:25:26Z</time>
      </trkpt>
      <trkpt lat="44.30609" lon="5.15822">
        <ele>582.7</ele>
        <time>2013-07-19T05:25:27Z</time>
      </trkpt>
      <trkpt lat="44.30608" lon="5.15824">
        <ele>583.66</ele>
        <time>2013-07-19T05:25:28Z</time>
      </trkpt>
      <trkpt lat="44.30606" lon="5.15827">
        <ele>583.18</ele>
        <time>2013-07-19T05:25:29Z</time>
      </trkpt>
      <trkpt lat="44.30606" lon="5.15829">
        <ele>583.66</ele>
        <time>2013-07-19T05:25:30Z</time>
      </trkpt>
      <trkpt lat="44.30605" lon="5.15831">
        <ele>583.66</ele>
        <time>2013-07-19T05:25:31Z</time>
      </trkpt>
      <trkpt lat="44.30604" lon="5.15833">
        <ele>584.14</ele>
        <time>2013-07-19T05:25:32Z</time>
      </trkpt>
      <trkpt lat="44.30603" lon="5.15836">
        <ele>584.14</ele>
        <time>2013-07-19T05:25:33Z</time>
      </trkpt>
      <trkpt lat="44.30602" lon="5.15838">
        <ele>584.14</ele>
        <time>2013-07-19T05:25:34Z</time>
      </trkpt>
      <trkpt lat="44.306" lon="5.1584">
        <ele>584.14</ele>
        <time>2013-07-19T05:25:35Z</time>
      </trkpt>
      <trkpt lat="44.30599" lon="5.15842">
        <ele>584.14</ele>
        <time>2013-07-19T05:25:36Z</time>
      </trkpt>
      <trkpt lat="44.30599" lon="5.15845">
        <ele>584.14</ele>
        <time>2013-07-19T05:25:37Z</time>
      </trkpt>
      <trkpt lat="44.30599" lon="5.15848">
        <ele>584.62</ele>
        <time>2013-07-19T05:25:38Z</time>
      </trkpt>
      <trkpt lat="44.30603" lon="5.1588">
        <ele>585.1</ele>
        <time>2013-07-19T05:25:49Z</time>
      </trkpt>
      <trkpt lat="44.30624" lon="5.15905">
        <ele>586.54</ele>
        <time>2013-07-19T05:26:02Z</time>
      </trkpt>
      <trkpt lat="44.30645" lon="5.15937">
        <ele>586.54</ele>
        <time>2013-07-19T05:26:15Z</time>
      </trkpt>
      <trkpt lat="44.30665" lon="5.1596">
        <ele>587.5</ele>
        <time>2013-07-19T05:26:27Z</time>
      </trkpt>
      <trkpt lat="44.3069" lon="5.15966">
        <ele>587.02</ele>
        <time>2013-07-19T05:26:39Z</time>
      </trkpt>
      <trkpt lat="44.30708" lon="5.15989">
        <ele>586.54</ele>
        <time>2013-07-19T05:26:51Z</time>
      </trkpt>
      <trkpt lat="44.30722" lon="5.16021">
        <ele>586.54</ele>
        <time>2013-07-19T05:27:02Z</time>
      </trkpt>
      <trkpt lat="44.30734" lon="5.16054">
        <ele>587.5</ele>
        <time>2013-07-19T05:27:13Z</time>
      </trkpt>
      <trkpt lat="44.30749" lon="5.16097">
        <ele>587.02</ele>
        <time>2013-07-19T05:27:26Z</time>
      </trkpt>
      <trkpt lat="44.3076" lon="5.16146">
        <ele>586.54</ele>
        <time>2013-07-19T05:27:41Z</time>
      </trkpt>
      <trkpt lat="44.30761" lon="5.16191">
        <ele>584.14</ele>
        <time>2013-07-19T05:27:51Z</time>
      </trkpt>
      <trkpt lat="44.30776" lon="5.16228">
        <ele>584.14</ele>
        <time>2013-07-19T05:28:03Z</time>
      </trkpt>
      <trkpt lat="44.30806" lon="5.16224">
        <ele>581.73</ele>
        <time>2013-07-19T05:28:16Z</time>
      </trkpt>
      <trkpt lat="44.30833" lon="5.1624">
        <ele>582.7</ele>
        <time>2013-07-19T05:28:29Z</time>
      </trkpt>
      <trkpt lat="44.30833" lon="5.16264">
        <ele>583.18</ele>
        <time>2013-07-19T05:28:36Z</time>
      </trkpt>
      <trkpt lat="44.30832" lon="5.16266">
        <ele>583.66</ele>
        <time>2013-07-19T05:28:37Z</time>
      </trkpt>
      <trkpt lat="44.3083" lon="5.16268">
        <ele>583.66</ele>
        <time>2013-07-19T05:28:38Z</time>
      </trkpt>
      <trkpt lat="44.30828" lon="5.16269">
        <ele>583.18</ele>
        <time>2013-07-19T05:28:39Z</time>
      </trkpt>
      <trkpt lat="44.30827" lon="5.16271">
        <ele>584.14</ele>
        <time>2013-07-19T05:28:40Z</time>
      </trkpt>
      <trkpt lat="44.30825" lon="5.16274">
        <ele>584.14</ele>
        <time>2013-07-19T05:28:41Z</time>
      </trkpt>
      <trkpt lat="44.30821" lon="5.16279">
        <ele>584.62</ele>
        <time>2013-07-19T05:28:44Z</time>
      </trkpt>
      <trkpt lat="44.30821" lon="5.16282">
        <ele>585.1</ele>
        <time>2013-07-19T05:28:45Z</time>
      </trkpt>
      <trkpt lat="44.3082" lon="5.16287">
        <ele>585.1</ele>
        <time>2013-07-19T05:28:46Z</time>
      </trkpt>
      <trkpt lat="44.30818" lon="5.1629">
        <ele>585.1</ele>
        <time>2013-07-19T05:28:47Z</time>
      </trkpt>
      <trkpt lat="44.30817" lon="5.16294">
        <ele>585.58</ele>
        <time>2013-07-19T05:28:48Z</time>
      </trkpt>
      <trkpt lat="44.30816" lon="5.16298">
        <ele>585.1</ele>
        <time>2013-07-19T05:28:49Z</time>
      </trkpt>
      <trkpt lat="44.30815" lon="5.16302">
        <ele>585.1</ele>
        <time>2013-07-19T05:28:50Z</time>
      </trkpt>
      <trkpt lat="44.30814" lon="5.16306">
        <ele>585.58</ele>
        <time>2013-07-19T05:28:51Z</time>
      </trkpt>
      <trkpt lat="44.30806" lon="5.16337">
        <ele>587.5</ele>
        <time>2013-07-19T05:29:01Z</time>
      </trkpt>
      <trkpt lat="44.30795" lon="5.16366">
        <ele>589.91</ele>
        <time>2013-07-19T05:29:13Z</time>
      </trkpt>
      <trkpt lat="44.30779" lon="5.16394">
        <ele>591.83</ele>
        <time>2013-07-19T05:29:26Z</time>
      </trkpt>
      <trkpt lat="44.30775" lon="5.16399">
        <ele>592.31</ele>
        <time>2013-07-19T05:29:29Z</time>
      </trkpt>
      <trkpt lat="44.30774" lon="5.16401">
        <ele>592.31</ele>
        <time>2013-07-19T05:29:30Z</time>
      </trkpt>
      <trkpt lat="44.30772" lon="5.16403">
        <ele>592.31</ele>
        <time>2013-07-19T05:29:31Z</time>
      </trkpt>
      <trkpt lat="44.30771" lon="5.16404">
        <ele>592.79</ele>
        <time>2013-07-19T05:29:32Z</time>
      </trkpt>
      <trkpt lat="44.3077" lon="5.16406">
        <ele>592.79</ele>
        <time>2013-07-19T05:29:33Z</time>
      </trkpt>
      <trkpt lat="44.3077" lon="5.16408">
        <ele>593.75</ele>
        <time>2013-07-19T05:29:34Z</time>
      </trkpt>
      <trkpt lat="44.3077" lon="5.1641">
        <ele>593.75</ele>
        <time>2013-07-19T05:29:35Z</time>
      </trkpt>
      <trkpt lat="44.3077" lon="5.16412">
        <ele>593.27</ele>
        <time>2013-07-19T05:29:36Z</time>
      </trkpt>
      <trkpt lat="44.30771" lon="5.16427">
        <ele>596.64</ele>
        <time>2013-07-19T05:29:45Z</time>
      </trkpt>
      <trkpt lat="44.30775" lon="5.16462">
        <ele>600</ele>
        <time>2013-07-19T05:30:00Z</time>
      </trkpt>
      <trkpt lat="44.3077" lon="5.16492">
        <ele>598.56</ele>
        <time>2013-07-19T05:30:15Z</time>
      </trkpt>
      <trkpt lat="44.30767" lon="5.16493">
        <ele>599.04</ele>
        <time>2013-07-19T05:30:23Z</time>
      </trkpt>
      <trkpt lat="44.30763" lon="5.16493">
        <ele>602.88</ele>
        <time>2013-07-19T05:30:32Z</time>
      </trkpt>
      <trkpt lat="44.30763" lon="5.16493">
        <ele>588.46</ele>
        <time>2013-07-19T05:30:34Z</time>
      </trkpt>
      <trkpt lat="44.30763" lon="5.16493">
        <ele>601.44</ele>
        <time>2013-07-19T05:30:35Z</time>
      </trkpt>
      <trkpt lat="44.30762" lon="5.16493">
        <ele>598.56</ele>
        <time>2013-07-19T05:30:43Z</time>
      </trkpt>
      <trkpt lat="44.30762" lon="5.16492">
        <ele>599.04</ele>
        <time>2013-07-19T05:31:03Z</time>
      </trkpt>
      <trkpt lat="44.3076" lon="5.16494">
        <ele>599.04</ele>
        <time>2013-07-19T05:31:22Z</time>
      </trkpt>
      <trkpt lat="44.30752" lon="5.16495">
        <ele>600.96</ele>
        <time>2013-07-19T05:31:31Z</time>
      </trkpt>
      <trkpt lat="44.30739" lon="5.16506">
        <ele>603.85</ele>
        <time>2013-07-19T05:31:43Z</time>
      </trkpt>
      <trkpt lat="44.30731" lon="5.16514">
        <ele>593.75</ele>
        <time>2013-07-19T05:31:51Z</time>
      </trkpt>
      <trkpt lat="44.30729" lon="5.16515">
        <ele>605.29</ele>
        <time>2013-07-19T05:31:52Z</time>
      </trkpt>
      <trkpt lat="44.30725" lon="5.16519">
        <ele>604.33</ele>
        <time>2013-07-19T05:31:55Z</time>
      </trkpt>
      <trkpt lat="44.30724" lon="5.1652">
        <ele>604.33</ele>
        <time>2013-07-19T05:31:56Z</time>
      </trkpt>
      <trkpt lat="44.30722" lon="5.16522">
        <ele>604.81</ele>
        <time>2013-07-19T05:31:58Z</time>
      </trkpt>
      <trkpt lat="44.30721" lon="5.16523">
        <ele>604.81</ele>
        <time>2013-07-19T05:31:59Z</time>
      </trkpt>
      <trkpt lat="44.30719" lon="5.16525">
        <ele>604.81</ele>
        <time>2013-07-19T05:32:00Z</time>
      </trkpt>
      <trkpt lat="44.30718" lon="5.16526">
        <ele>605.29</ele>
        <time>2013-07-19T05:32:01Z</time>
      </trkpt>
      <trkpt lat="44.3071" lon="5.16535">
        <ele>604.81</ele>
        <time>2013-07-19T05:32:07Z</time>
      </trkpt>
      <trkpt lat="44.30709" lon="5.16538">
        <ele>604.81</ele>
        <time>2013-07-19T05:32:08Z</time>
      </trkpt>
      <trkpt lat="44.30707" lon="5.16539">
        <ele>604.81</ele>
        <time>2013-07-19T05:32:09Z</time>
      </trkpt>
      <trkpt lat="44.30705" lon="5.16541">
        <ele>604.33</ele>
        <time>2013-07-19T05:32:10Z</time>
      </trkpt>
      <trkpt lat="44.30704" lon="5.16543">
        <ele>604.33</ele>
        <time>2013-07-19T05:32:11Z</time>
      </trkpt>
      <trkpt lat="44.30697" lon="5.16553">
        <ele>604.33</ele>
        <time>2013-07-19T05:32:17Z</time>
      </trkpt>
      <trkpt lat="44.30697" lon="5.16555">
        <ele>604.81</ele>
        <time>2013-07-19T05:32:18Z</time>
      </trkpt>
      <trkpt lat="44.30696" lon="5.16557">
        <ele>604.81</ele>
        <time>2013-07-19T05:32:19Z</time>
      </trkpt>
      <trkpt lat="44.30696" lon="5.1656">
        <ele>604.81</ele>
        <time>2013-07-19T05:32:20Z</time>
      </trkpt>
      <trkpt lat="44.30696" lon="5.16562">
        <ele>605.77</ele>
        <time>2013-07-19T05:32:21Z</time>
      </trkpt>
      <trkpt lat="44.30696" lon="5.16565">
        <ele>605.77</ele>
        <time>2013-07-19T05:32:22Z</time>
      </trkpt>
      <trkpt lat="44.30696" lon="5.16568">
        <ele>606.25</ele>
        <time>2013-07-19T05:32:24Z</time>
      </trkpt>
      <trkpt lat="44.30696" lon="5.1657">
        <ele>606.73</ele>
        <time>2013-07-19T05:32:25Z</time>
      </trkpt>
      <trkpt lat="44.30696" lon="5.16572">
        <ele>606.73</ele>
        <time>2013-07-19T05:32:26Z</time>
      </trkpt>
      <trkpt lat="44.30696" lon="5.16575">
        <ele>596.15</ele>
        <time>2013-07-19T05:32:28Z</time>
      </trkpt>
      <trkpt lat="44.30697" lon="5.16577">
        <ele>610.57</ele>
        <time>2013-07-19T05:32:29Z</time>
      </trkpt>
      <trkpt lat="44.30698" lon="5.16578">
        <ele>607.69</ele>
        <time>2013-07-19T05:32:30Z</time>
      </trkpt>
      <trkpt lat="44.30699" lon="5.16595">
        <ele>609.13</ele>
        <time>2013-07-19T05:32:38Z</time>
      </trkpt>
      <trkpt lat="44.307" lon="5.16598">
        <ele>609.13</ele>
        <time>2013-07-19T05:32:39Z</time>
      </trkpt>
      <trkpt lat="44.307" lon="5.166">
        <ele>609.61</ele>
        <time>2013-07-19T05:32:40Z</time>
      </trkpt>
      <trkpt lat="44.30701" lon="5.16608">
        <ele>599.04</ele>
        <time>2013-07-19T05:32:43Z</time>
      </trkpt>
      <trkpt lat="44.30701" lon="5.16611">
        <ele>612.02</ele>
        <time>2013-07-19T05:32:44Z</time>
      </trkpt>
      <trkpt lat="44.30702" lon="5.16614">
        <ele>610.09</ele>
        <time>2013-07-19T05:32:45Z</time>
      </trkpt>
      <trkpt lat="44.30705" lon="5.1662">
        <ele>611.06</ele>
        <time>2013-07-19T05:32:48Z</time>
      </trkpt>
      <trkpt lat="44.30715" lon="5.1663">
        <ele>611.54</ele>
        <time>2013-07-19T05:32:56Z</time>
      </trkpt>
      <trkpt lat="44.30717" lon="5.1663">
        <ele>611.54</ele>
        <time>2013-07-19T05:32:57Z</time>
      </trkpt>
      <trkpt lat="44.3072" lon="5.16632">
        <ele>612.02</ele>
        <time>2013-07-19T05:32:59Z</time>
      </trkpt>
      <trkpt lat="44.30722" lon="5.16633">
        <ele>612.02</ele>
        <time>2013-07-19T05:33:00Z</time>
      </trkpt>
      <trkpt lat="44.30724" lon="5.16634">
        <ele>612.5</ele>
        <time>2013-07-19T05:33:01Z</time>
      </trkpt>
      <trkpt lat="44.30726" lon="5.16634">
        <ele>612.5</ele>
        <time>2013-07-19T05:33:02Z</time>
      </trkpt>
      <trkpt lat="44.30728" lon="5.16635">
        <ele>612.5</ele>
        <time>2013-07-19T05:33:03Z</time>
      </trkpt>
      <trkpt lat="44.30729" lon="5.16637">
        <ele>612.98</ele>
        <time>2013-07-19T05:33:04Z</time>
      </trkpt>
      <trkpt lat="44.30731" lon="5.16638">
        <ele>613.46</ele>
        <time>2013-07-19T05:33:05Z</time>
      </trkpt>
      <trkpt lat="44.30732" lon="5.1664">
        <ele>613.46</ele>
        <time>2013-07-19T05:33:06Z</time>
      </trkpt>
      <trkpt lat="44.30732" lon="5.16642">
        <ele>613.46</ele>
        <time>2013-07-19T05:33:07Z</time>
      </trkpt>
      <trkpt lat="44.30733" lon="5.16644">
        <ele>613.46</ele>
        <time>2013-07-19T05:33:08Z</time>
      </trkpt>
      <trkpt lat="44.30733" lon="5.16646">
        <ele>612.98</ele>
        <time>2013-07-19T05:33:09Z</time>
      </trkpt>
      <trkpt lat="44.30733" lon="5.16648">
        <ele>613.46</ele>
        <time>2013-07-19T05:33:10Z</time>
      </trkpt>
      <trkpt lat="44.30733" lon="5.16651">
        <ele>613.94</ele>
        <time>2013-07-19T05:33:11Z</time>
      </trkpt>
      <trkpt lat="44.30733" lon="5.16653">
        <ele>613.46</ele>
        <time>2013-07-19T05:33:12Z</time>
      </trkpt>
      <trkpt lat="44.30733" lon="5.16656">
        <ele>613.46</ele>
        <time>2013-07-19T05:33:13Z</time>
      </trkpt>
      <trkpt lat="44.30733" lon="5.1666">
        <ele>613.94</ele>
        <time>2013-07-19T05:33:15Z</time>
      </trkpt>
      <trkpt lat="44.30733" lon="5.16662">
        <ele>613.94</ele>
        <time>2013-07-19T05:33:16Z</time>
      </trkpt>
      <trkpt lat="44.30733" lon="5.16664">
        <ele>613.94</ele>
        <time>2013-07-19T05:33:17Z</time>
      </trkpt>
      <trkpt lat="44.30733" lon="5.16667">
        <ele>614.42</ele>
        <time>2013-07-19T05:33:18Z</time>
      </trkpt>
      <trkpt lat="44.30734" lon="5.16669">
        <ele>614.42</ele>
        <time>2013-07-19T05:33:19Z</time>
      </trkpt>
      <trkpt lat="44.3074" lon="5.1669">
        <ele>615.86</ele>
        <time>2013-07-19T05:33:29Z</time>
      </trkpt>
      <trkpt lat="44.3074" lon="5.16692">
        <ele>615.86</ele>
        <time>2013-07-19T05:33:30Z</time>
      </trkpt>
      <trkpt lat="44.30741" lon="5.16695">
        <ele>615.86</ele>
        <time>2013-07-19T05:33:31Z</time>
      </trkpt>
      <trkpt lat="44.30742" lon="5.16697">
        <ele>615.86</ele>
        <time>2013-07-19T05:33:32Z</time>
      </trkpt>
      <trkpt lat="44.30742" lon="5.16698">
        <ele>616.34</ele>
        <time>2013-07-19T05:33:33Z</time>
      </trkpt>
      <trkpt lat="44.30743" lon="5.167">
        <ele>616.34</ele>
        <time>2013-07-19T05:33:34Z</time>
      </trkpt>
      <trkpt lat="44.30743" lon="5.16702">
        <ele>616.82</ele>
        <time>2013-07-19T05:33:35Z</time>
      </trkpt>
      <trkpt lat="44.30745" lon="5.16708">
        <ele>617.3</ele>
        <time>2013-07-19T05:33:38Z</time>
      </trkpt>
      <trkpt lat="44.30746" lon="5.16709">
        <ele>617.78</ele>
        <time>2013-07-19T05:33:39Z</time>
      </trkpt>
      <trkpt lat="44.30748" lon="5.16713">
        <ele>617.78</ele>
        <time>2013-07-19T05:33:41Z</time>
      </trkpt>
      <trkpt lat="44.3075" lon="5.16714">
        <ele>618.26</ele>
        <time>2013-07-19T05:33:42Z</time>
      </trkpt>
      <trkpt lat="44.30751" lon="5.16715">
        <ele>618.75</ele>
        <time>2013-07-19T05:33:43Z</time>
      </trkpt>
      <trkpt lat="44.30752" lon="5.16715">
        <ele>618.75</ele>
        <time>2013-07-19T05:33:44Z</time>
      </trkpt>
      <trkpt lat="44.30753" lon="5.16717">
        <ele>619.23</ele>
        <time>2013-07-19T05:33:45Z</time>
      </trkpt>
      <trkpt lat="44.30754" lon="5.16718">
        <ele>619.23</ele>
        <time>2013-07-19T05:33:46Z</time>
      </trkpt>
      <trkpt lat="44.30755" lon="5.1672">
        <ele>619.71</ele>
        <time>2013-07-19T05:33:47Z</time>
      </trkpt>
      <trkpt lat="44.30755" lon="5.16722">
        <ele>619.71</ele>
        <time>2013-07-19T05:33:48Z</time>
      </trkpt>
      <trkpt lat="44.30756" lon="5.16725">
        <ele>619.71</ele>
        <time>2013-07-19T05:33:49Z</time>
      </trkpt>
      <trkpt lat="44.30756" lon="5.16727">
        <ele>620.19</ele>
        <time>2013-07-19T05:33:50Z</time>
      </trkpt>
      <trkpt lat="44.30756" lon="5.16728">
        <ele>620.67</ele>
        <time>2013-07-19T05:33:51Z</time>
      </trkpt>
      <trkpt lat="44.30756" lon="5.1673">
        <ele>620.19</ele>
        <time>2013-07-19T05:33:52Z</time>
      </trkpt>
      <trkpt lat="44.30756" lon="5.16732">
        <ele>620.67</ele>
        <time>2013-07-19T05:33:53Z</time>
      </trkpt>
      <trkpt lat="44.30757" lon="5.16734">
        <ele>621.15</ele>
        <time>2013-07-19T05:33:54Z</time>
      </trkpt>
      <trkpt lat="44.30757" lon="5.16736">
        <ele>621.15</ele>
        <time>2013-07-19T05:33:55Z</time>
      </trkpt>
      <trkpt lat="44.30757" lon="5.16738">
        <ele>621.63</ele>
        <time>2013-07-19T05:33:56Z</time>
      </trkpt>
      <trkpt lat="44.30758" lon="5.1674">
        <ele>621.63</ele>
        <time>2013-07-19T05:33:57Z</time>
      </trkpt>
      <trkpt lat="44.3076" lon="5.16745">
        <ele>622.11</ele>
        <time>2013-07-19T05:34:00Z</time>
      </trkpt>
      <trkpt lat="44.30761" lon="5.16748">
        <ele>622.11</ele>
        <time>2013-07-19T05:34:01Z</time>
      </trkpt>
      <trkpt lat="44.30761" lon="5.16751">
        <ele>622.11</ele>
        <time>2013-07-19T05:34:02Z</time>
      </trkpt>
      <trkpt lat="44.30761" lon="5.16754">
        <ele>622.59</ele>
        <time>2013-07-19T05:34:03Z</time>
      </trkpt>
      <trkpt lat="44.30761" lon="5.16756">
        <ele>623.07</ele>
        <time>2013-07-19T05:34:04Z</time>
      </trkpt>
      <trkpt lat="44.3076" lon="5.16758">
        <ele>622.59</ele>
        <time>2013-07-19T05:34:05Z</time>
      </trkpt>
      <trkpt lat="44.3076" lon="5.1676">
        <ele>622.59</ele>
        <time>2013-07-19T05:34:06Z</time>
      </trkpt>
      <trkpt lat="44.30759" lon="5.16762">
        <ele>622.59</ele>
        <time>2013-07-19T05:34:07Z</time>
      </trkpt>
      <trkpt lat="44.30758" lon="5.16765">
        <ele>622.59</ele>
        <time>2013-07-19T05:34:08Z</time>
      </trkpt>
      <trkpt lat="44.30758" lon="5.16767">
        <ele>622.59</ele>
        <time>2013-07-19T05:34:09Z</time>
      </trkpt>
      <trkpt lat="44.30758" lon="5.16769">
        <ele>622.59</ele>
        <time>2013-07-19T05:34:10Z</time>
      </trkpt>
      <trkpt lat="44.30758" lon="5.16771">
        <ele>620.67</ele>
        <time>2013-07-19T05:34:11Z</time>
      </trkpt>
      <trkpt lat="44.30758" lon="5.16774">
        <ele>628.84</ele>
        <time>2013-07-19T05:34:12Z</time>
      </trkpt>
      <trkpt lat="44.30758" lon="5.16776">
        <ele>626.92</ele>
        <time>2013-07-19T05:34:13Z</time>
      </trkpt>
      <trkpt lat="44.30758" lon="5.16778">
        <ele>613.94</ele>
        <time>2013-07-19T05:34:14Z</time>
      </trkpt>
      <trkpt lat="44.30759" lon="5.1678">
        <ele>624.51</ele>
        <time>2013-07-19T05:34:15Z</time>
      </trkpt>
      <trkpt lat="44.30758" lon="5.16787">
        <ele>624.03</ele>
        <time>2013-07-19T05:34:18Z</time>
      </trkpt>
      <trkpt lat="44.30758" lon="5.16789">
        <ele>624.03</ele>
        <time>2013-07-19T05:34:19Z</time>
      </trkpt>
      <trkpt lat="44.30759" lon="5.16797">
        <ele>625.47</ele>
        <time>2013-07-19T05:34:23Z</time>
      </trkpt>
      <trkpt lat="44.30759" lon="5.16799">
        <ele>625.47</ele>
        <time>2013-07-19T05:34:24Z</time>
      </trkpt>
      <trkpt lat="44.3076" lon="5.16801">
        <ele>625.96</ele>
        <time>2013-07-19T05:34:25Z</time>
      </trkpt>
      <trkpt lat="44.3076" lon="5.16803">
        <ele>626.44</ele>
        <time>2013-07-19T05:34:26Z</time>
      </trkpt>
      <trkpt lat="44.30761" lon="5.16805">
        <ele>626.44</ele>
        <time>2013-07-19T05:34:27Z</time>
      </trkpt>
      <trkpt lat="44.30762" lon="5.16808">
        <ele>626.44</ele>
        <time>2013-07-19T05:34:28Z</time>
      </trkpt>
      <trkpt lat="44.30762" lon="5.1681">
        <ele>627.4</ele>
        <time>2013-07-19T05:34:29Z</time>
      </trkpt>
      <trkpt lat="44.30763" lon="5.16813">
        <ele>626.92</ele>
        <time>2013-07-19T05:34:31Z</time>
      </trkpt>
      <trkpt lat="44.30763" lon="5.16814">
        <ele>627.88</ele>
        <time>2013-07-19T05:34:32Z</time>
      </trkpt>
      <trkpt lat="44.30764" lon="5.16816">
        <ele>627.4</ele>
        <time>2013-07-19T05:34:33Z</time>
      </trkpt>
      <trkpt lat="44.30765" lon="5.16819">
        <ele>628.84</ele>
        <time>2013-07-19T05:34:35Z</time>
      </trkpt>
      <trkpt lat="44.30767" lon="5.16824">
        <ele>629.8</ele>
        <time>2013-07-19T05:34:39Z</time>
      </trkpt>
      <trkpt lat="44.30769" lon="5.16827">
        <ele>630.28</ele>
        <time>2013-07-19T05:34:41Z</time>
      </trkpt>
      <trkpt lat="44.30771" lon="5.16831">
        <ele>631.72</ele>
        <time>2013-07-19T05:34:44Z</time>
      </trkpt>
      <trkpt lat="44.30776" lon="5.16848">
        <ele>635.09</ele>
        <time>2013-07-19T05:34:54Z</time>
      </trkpt>
      <trkpt lat="44.30776" lon="5.16849">
        <ele>635.09</ele>
        <time>2013-07-19T05:34:55Z</time>
      </trkpt>
      <trkpt lat="44.30775" lon="5.16863">
        <ele>637.49</ele>
        <time>2013-07-19T05:35:04Z</time>
      </trkpt>
      <trkpt lat="44.30772" lon="5.16875">
        <ele>639.41</ele>
        <time>2013-07-19T05:35:11Z</time>
      </trkpt>
      <trkpt lat="44.30771" lon="5.16876">
        <ele>640.38</ele>
        <time>2013-07-19T05:35:12Z</time>
      </trkpt>
      <trkpt lat="44.3077" lon="5.16882">
        <ele>643.74</ele>
        <time>2013-07-19T05:35:22Z</time>
      </trkpt>
      <trkpt lat="44.3077" lon="5.16883">
        <ele>644.22</ele>
        <time>2013-07-19T05:35:23Z</time>
      </trkpt>
      <trkpt lat="44.30772" lon="5.16883">
        <ele>644.22</ele>
        <time>2013-07-19T05:35:25Z</time>
      </trkpt>
      <trkpt lat="44.30767" lon="5.16894">
        <ele>648.07</ele>
        <time>2013-07-19T05:35:36Z</time>
      </trkpt>
      <trkpt lat="44.30766" lon="5.16899">
        <ele>648.07</ele>
        <time>2013-07-19T05:35:39Z</time>
      </trkpt>
      <trkpt lat="44.30764" lon="5.16904">
        <ele>648.55</ele>
        <time>2013-07-19T05:35:41Z</time>
      </trkpt>
      <trkpt lat="44.30758" lon="5.16914">
        <ele>639.89</ele>
        <time>2013-07-19T05:35:45Z</time>
      </trkpt>
      <trkpt lat="44.30757" lon="5.16916">
        <ele>654.8</ele>
        <time>2013-07-19T05:35:46Z</time>
      </trkpt>
      <trkpt lat="44.30757" lon="5.16917">
        <ele>660.08</ele>
        <time>2013-07-19T05:35:47Z</time>
      </trkpt>
      <trkpt lat="44.30756" lon="5.16919">
        <ele>640.38</ele>
        <time>2013-07-19T05:35:48Z</time>
      </trkpt>
      <trkpt lat="44.30755" lon="5.16921">
        <ele>651.43</ele>
        <time>2013-07-19T05:35:49Z</time>
      </trkpt>
      <trkpt lat="44.3075" lon="5.16936">
        <ele>652.39</ele>
        <time>2013-07-19T05:36:00Z</time>
      </trkpt>
      <trkpt lat="44.30752" lon="5.16958">
        <ele>655.28</ele>
        <time>2013-07-19T05:36:10Z</time>
      </trkpt>
      <trkpt lat="44.30752" lon="5.16961">
        <ele>656.72</ele>
        <time>2013-07-19T05:36:16Z</time>
      </trkpt>
      <trkpt lat="44.30752" lon="5.16966">
        <ele>657.2</ele>
        <time>2013-07-19T05:36:19Z</time>
      </trkpt>
      <trkpt lat="44.3076" lon="5.16984">
        <ele>658.64</ele>
        <time>2013-07-19T05:36:26Z</time>
      </trkpt>
      <trkpt lat="44.30762" lon="5.17014">
        <ele>661.04</ele>
        <time>2013-07-19T05:36:37Z</time>
      </trkpt>
      <trkpt lat="44.30761" lon="5.1701">
        <ele>661.04</ele>
        <time>2013-07-19T05:36:49Z</time>
      </trkpt>
      <trkpt lat="44.30761" lon="5.17018">
        <ele>661.04</ele>
        <time>2013-07-19T05:37:00Z</time>
      </trkpt>
      <trkpt lat="44.30758" lon="5.17029">
        <ele>662.49</ele>
        <time>2013-07-19T05:37:07Z</time>
      </trkpt>
      <trkpt lat="44.3076" lon="5.1704">
        <ele>659.6</ele>
        <time>2013-07-19T05:37:13Z</time>
      </trkpt>
      <trkpt lat="44.30761" lon="5.17042">
        <ele>672.1</ele>
        <time>2013-07-19T05:37:14Z</time>
      </trkpt>
      <trkpt lat="44.30761" lon="5.17044">
        <ele>665.37</ele>
        <time>2013-07-19T05:37:15Z</time>
      </trkpt>
      <trkpt lat="44.30763" lon="5.17053">
        <ele>666.33</ele>
        <time>2013-07-19T05:37:20Z</time>
      </trkpt>
      <trkpt lat="44.30763" lon="5.17055">
        <ele>666.81</ele>
        <time>2013-07-19T05:37:22Z</time>
      </trkpt>
      <trkpt lat="44.30763" lon="5.17068">
        <ele>668.25</ele>
        <time>2013-07-19T05:37:29Z</time>
      </trkpt>
      <trkpt lat="44.30761" lon="5.17073">
        <ele>668.73</ele>
        <time>2013-07-19T05:37:32Z</time>
      </trkpt>
      <trkpt lat="44.30755" lon="5.17077">
        <ele>669.22</ele>
        <time>2013-07-19T05:37:36Z</time>
      </trkpt>
      <trkpt lat="44.30746" lon="5.17088">
        <ele>668.73</ele>
        <time>2013-07-19T05:37:42Z</time>
      </trkpt>
      <trkpt lat="44.30739" lon="5.17122">
        <ele>669.22</ele>
        <time>2013-07-19T05:37:56Z</time>
      </trkpt>
      <trkpt lat="44.30739" lon="5.17125">
        <ele>669.7</ele>
        <time>2013-07-19T05:37:57Z</time>
      </trkpt>
      <trkpt lat="44.30737" lon="5.17131">
        <ele>670.66</ele>
        <time>2013-07-19T05:38:00Z</time>
      </trkpt>
      <trkpt lat="44.30735" lon="5.17139">
        <ele>671.14</ele>
        <time>2013-07-19T05:38:04Z</time>
      </trkpt>
      <trkpt lat="44.30732" lon="5.17146">
        <ele>672.1</ele>
        <time>2013-07-19T05:38:08Z</time>
      </trkpt>
      <trkpt lat="44.3073" lon="5.17152">
        <ele>673.06</ele>
        <time>2013-07-19T05:38:11Z</time>
      </trkpt>
      <trkpt lat="44.30723" lon="5.17162">
        <ele>674.5</ele>
        <time>2013-07-19T05:38:16Z</time>
      </trkpt>
      <trkpt lat="44.30719" lon="5.17172">
        <ele>676.42</ele>
        <time>2013-07-19T05:38:23Z</time>
      </trkpt>
      <trkpt lat="44.30715" lon="5.17175">
        <ele>677.39</ele>
        <time>2013-07-19T05:38:26Z</time>
      </trkpt>
      <trkpt lat="44.30713" lon="5.17179">
        <ele>678.83</ele>
        <time>2013-07-19T05:38:29Z</time>
      </trkpt>
      <trkpt lat="44.30714" lon="5.17184">
        <ele>679.79</ele>
        <time>2013-07-19T05:38:33Z</time>
      </trkpt>
      <trkpt lat="44.30714" lon="5.17186">
        <ele>680.75</ele>
        <time>2013-07-19T05:38:35Z</time>
      </trkpt>
      <trkpt lat="44.30711" lon="5.17191">
        <ele>682.19</ele>
        <time>2013-07-19T05:38:39Z</time>
      </trkpt>
      <trkpt lat="44.30708" lon="5.17196">
        <ele>683.15</ele>
        <time>2013-07-19T05:38:42Z</time>
      </trkpt>
      <trkpt lat="44.30705" lon="5.172">
        <ele>686.04</ele>
        <time>2013-07-19T05:38:48Z</time>
      </trkpt>
      <trkpt lat="44.30704" lon="5.172">
        <ele>687</ele>
        <time>2013-07-19T05:38:53Z</time>
      </trkpt>
      <trkpt lat="44.30697" lon="5.17214">
        <ele>689.88</ele>
        <time>2013-07-19T05:39:06Z</time>
      </trkpt>
      <trkpt lat="44.30697" lon="5.17217">
        <ele>690.36</ele>
        <time>2013-07-19T05:39:09Z</time>
      </trkpt>
      <trkpt lat="44.307" lon="5.17222">
        <ele>693.25</ele>
        <time>2013-07-19T05:39:14Z</time>
      </trkpt>
      <trkpt lat="44.30699" lon="5.17221">
        <ele>693.73</ele>
        <time>2013-07-19T05:39:25Z</time>
      </trkpt>
      <trkpt lat="44.30698" lon="5.17223">
        <ele>693.73</ele>
        <time>2013-07-19T05:39:27Z</time>
      </trkpt>
      <trkpt lat="44.30697" lon="5.17226">
        <ele>694.21</ele>
        <time>2013-07-19T05:39:29Z</time>
      </trkpt>
      <trkpt lat="44.30693" lon="5.17234">
        <ele>694.69</ele>
        <time>2013-07-19T05:39:33Z</time>
      </trkpt>
      <trkpt lat="44.30685" lon="5.17241">
        <ele>698.53</ele>
        <time>2013-07-19T05:39:42Z</time>
      </trkpt>
      <trkpt lat="44.30679" lon="5.17249">
        <ele>701.42</ele>
        <time>2013-07-19T05:39:53Z</time>
      </trkpt>
      <trkpt lat="44.30677" lon="5.17261">
        <ele>703.34</ele>
        <time>2013-07-19T05:40:00Z</time>
      </trkpt>
      <trkpt lat="44.30678" lon="5.17262">
        <ele>706.71</ele>
        <time>2013-07-19T05:40:06Z</time>
      </trkpt>
      <trkpt lat="44.30678" lon="5.17262">
        <ele>708.15</ele>
        <time>2013-07-19T05:40:14Z</time>
      </trkpt>
      <trkpt lat="44.30679" lon="5.17263">
        <ele>703.82</ele>
        <time>2013-07-19T05:40:16Z</time>
      </trkpt>
      <trkpt lat="44.3068" lon="5.17263">
        <ele>704.3</ele>
        <time>2013-07-19T05:40:17Z</time>
      </trkpt>
      <trkpt lat="44.3068" lon="5.17264">
        <ele>707.67</ele>
        <time>2013-07-19T05:40:18Z</time>
      </trkpt>
      <trkpt lat="44.30681" lon="5.17264">
        <ele>706.71</ele>
        <time>2013-07-19T05:40:19Z</time>
      </trkpt>
      <trkpt lat="44.30682" lon="5.17264">
        <ele>705.75</ele>
        <time>2013-07-19T05:40:21Z</time>
      </trkpt>
      <trkpt lat="44.30684" lon="5.17265">
        <ele>706.23</ele>
        <time>2013-07-19T05:40:25Z</time>
      </trkpt>
      <trkpt lat="44.30685" lon="5.17265">
        <ele>702.38</ele>
        <time>2013-07-19T05:40:26Z</time>
      </trkpt>
      <trkpt lat="44.30685" lon="5.17265">
        <ele>708.15</ele>
        <time>2013-07-19T05:40:27Z</time>
      </trkpt>
      <trkpt lat="44.30685" lon="5.17265">
        <ele>704.78</ele>
        <time>2013-07-19T05:40:28Z</time>
      </trkpt>
      <trkpt lat="44.30688" lon="5.17265">
        <ele>708.15</ele>
        <time>2013-07-19T05:40:32Z</time>
      </trkpt>
      <trkpt lat="44.3069" lon="5.17264">
        <ele>701.9</ele>
        <time>2013-07-19T05:40:38Z</time>
      </trkpt>
      <trkpt lat="44.30691" lon="5.17264">
        <ele>708.15</ele>
        <time>2013-07-19T05:40:39Z</time>
      </trkpt>
      <trkpt lat="44.30692" lon="5.17264">
        <ele>707.67</ele>
        <time>2013-07-19T05:40:40Z</time>
      </trkpt>
      <trkpt lat="44.30701" lon="5.17264">
        <ele>708.63</ele>
        <time>2013-07-19T05:40:47Z</time>
      </trkpt>
      <trkpt lat="44.30708" lon="5.17264">
        <ele>710.07</ele>
        <time>2013-07-19T05:40:52Z</time>
      </trkpt>
      <trkpt lat="44.30722" lon="5.17268">
        <ele>713.92</ele>
        <time>2013-07-19T05:41:01Z</time>
      </trkpt>
      <trkpt lat="44.30723" lon="5.17268">
        <ele>713.92</ele>
        <time>2013-07-19T05:41:02Z</time>
      </trkpt>
      <trkpt lat="44.30723" lon="5.17267">
        <ele>714.4</ele>
        <time>2013-07-19T05:41:03Z</time>
      </trkpt>
      <trkpt lat="44.30725" lon="5.17268">
        <ele>715.36</ele>
        <time>2013-07-19T05:41:05Z</time>
      </trkpt>
      <trkpt lat="44.30731" lon="5.1727">
        <ele>720.16</ele>
        <time>2013-07-19T05:41:10Z</time>
      </trkpt>
      <trkpt lat="44.30734" lon="5.17271">
        <ele>708.15</ele>
        <time>2013-07-19T05:41:12Z</time>
      </trkpt>
      <trkpt lat="44.30734" lon="5.17271">
        <ele>719.2</ele>
        <time>2013-07-19T05:41:13Z</time>
      </trkpt>
      <trkpt lat="44.30735" lon="5.17271">
        <ele>717.76</ele>
        <time>2013-07-19T05:41:15Z</time>
      </trkpt>
      <trkpt lat="44.30739" lon="5.17272">
        <ele>719.2</ele>
        <time>2013-07-19T05:41:18Z</time>
      </trkpt>
      <trkpt lat="44.30751" lon="5.17282">
        <ele>720.65</ele>
        <time>2013-07-19T05:41:26Z</time>
      </trkpt>
      <trkpt lat="44.30752" lon="5.17284">
        <ele>721.13</ele>
        <time>2013-07-19T05:41:27Z</time>
      </trkpt>
      <trkpt lat="44.30764" lon="5.17287">
        <ele>723.05</ele>
        <time>2013-07-19T05:41:39Z</time>
      </trkpt>
      <trkpt lat="44.30766" lon="5.17288">
        <ele>723.05</ele>
        <time>2013-07-19T05:41:41Z</time>
      </trkpt>
      <trkpt lat="44.3077" lon="5.17288">
        <ele>723.53</ele>
        <time>2013-07-19T05:41:43Z</time>
      </trkpt>
      <trkpt lat="44.30792" lon="5.17298">
        <ele>724.97</ele>
        <time>2013-07-19T05:41:54Z</time>
      </trkpt>
      <trkpt lat="44.30804" lon="5.17305">
        <ele>728.34</ele>
        <time>2013-07-19T05:42:05Z</time>
      </trkpt>
      <trkpt lat="44.30809" lon="5.17311">
        <ele>731.22</ele>
        <time>2013-07-19T05:42:13Z</time>
      </trkpt>
      <trkpt lat="44.30811" lon="5.17313">
        <ele>732.18</ele>
        <time>2013-07-19T05:42:15Z</time>
      </trkpt>
      <trkpt lat="44.30816" lon="5.17318">
        <ele>734.1</ele>
        <time>2013-07-19T05:42:20Z</time>
      </trkpt>
      <trkpt lat="44.3082" lon="5.17321">
        <ele>734.58</ele>
        <time>2013-07-19T05:42:23Z</time>
      </trkpt>
      <trkpt lat="44.30823" lon="5.17324">
        <ele>736.03</ele>
        <time>2013-07-19T05:42:26Z</time>
      </trkpt>
      <trkpt lat="44.3083" lon="5.17328">
        <ele>737.47</ele>
        <time>2013-07-19T05:42:31Z</time>
      </trkpt>
      <trkpt lat="44.30834" lon="5.1733">
        <ele>738.43</ele>
        <time>2013-07-19T05:42:34Z</time>
      </trkpt>
      <trkpt lat="44.30845" lon="5.17331">
        <ele>741.31</ele>
        <time>2013-07-19T05:42:44Z</time>
      </trkpt>
      <trkpt lat="44.30849" lon="5.17332">
        <ele>742.28</ele>
        <time>2013-07-19T05:42:47Z</time>
      </trkpt>
      <trkpt lat="44.30853" lon="5.17335">
        <ele>743.72</ele>
        <time>2013-07-19T05:42:50Z</time>
      </trkpt>
      <trkpt lat="44.30857" lon="5.17337">
        <ele>744.68</ele>
        <time>2013-07-19T05:42:53Z</time>
      </trkpt>
      <trkpt lat="44.30864" lon="5.17346">
        <ele>747.56</ele>
        <time>2013-07-19T05:43:02Z</time>
      </trkpt>
      <trkpt lat="44.30882" lon="5.17351">
        <ele>749.49</ele>
        <time>2013-07-19T05:43:13Z</time>
      </trkpt>
      <trkpt lat="44.30891" lon="5.17352">
        <ele>751.41</ele>
        <time>2013-07-19T05:43:20Z</time>
      </trkpt>
      <trkpt lat="44.30906" lon="5.17341">
        <ele>753.33</ele>
        <time>2013-07-19T05:43:30Z</time>
      </trkpt>
      <trkpt lat="44.30911" lon="5.17336">
        <ele>754.77</ele>
        <time>2013-07-19T05:43:35Z</time>
      </trkpt>
      <trkpt lat="44.30917" lon="5.17334">
        <ele>755.73</ele>
        <time>2013-07-19T05:43:39Z</time>
      </trkpt>
      <trkpt lat="44.30921" lon="5.17333">
        <ele>756.21</ele>
        <time>2013-07-19T05:43:42Z</time>
      </trkpt>
      <trkpt lat="44.30932" lon="5.17331">
        <ele>756.69</ele>
        <time>2013-07-19T05:43:48Z</time>
      </trkpt>
      <trkpt lat="44.30936" lon="5.17331">
        <ele>757.18</ele>
        <time>2013-07-19T05:43:50Z</time>
      </trkpt>
      <trkpt lat="44.30955" lon="5.17321">
        <ele>758.62</ele>
        <time>2013-07-19T05:44:00Z</time>
      </trkpt>
      <trkpt lat="44.30956" lon="5.17319">
        <ele>758.62</ele>
        <time>2013-07-19T05:44:01Z</time>
      </trkpt>
      <trkpt lat="44.30963" lon="5.17315">
        <ele>759.58</ele>
        <time>2013-07-19T05:44:08Z</time>
      </trkpt>
      <trkpt lat="44.30976" lon="5.17306">
        <ele>760.54</ele>
        <time>2013-07-19T05:44:16Z</time>
      </trkpt>
      <trkpt lat="44.30986" lon="5.17298">
        <ele>760.06</ele>
        <time>2013-07-19T05:44:22Z</time>
      </trkpt>
      <trkpt lat="44.31004" lon="5.1729">
        <ele>759.58</ele>
        <time>2013-07-19T05:44:31Z</time>
      </trkpt>
      <trkpt lat="44.31027" lon="5.17281">
        <ele>757.66</ele>
        <time>2013-07-19T05:44:40Z</time>
      </trkpt>
      <trkpt lat="44.31034" lon="5.1728">
        <ele>757.66</ele>
        <time>2013-07-19T05:44:43Z</time>
      </trkpt>
      <trkpt lat="44.31053" lon="5.17276">
        <ele>757.18</ele>
        <time>2013-07-19T05:44:51Z</time>
      </trkpt>
      <trkpt lat="44.31069" lon="5.17281">
        <ele>756.69</ele>
        <time>2013-07-19T05:44:58Z</time>
      </trkpt>
      <trkpt lat="44.31092" lon="5.17291">
        <ele>757.66</ele>
        <time>2013-07-19T05:45:07Z</time>
      </trkpt>
      <trkpt lat="44.31113" lon="5.17298">
        <ele>758.14</ele>
        <time>2013-07-19T05:45:16Z</time>
      </trkpt>
      <trkpt lat="44.31118" lon="5.17301">
        <ele>758.62</ele>
        <time>2013-07-19T05:45:20Z</time>
      </trkpt>
      <trkpt lat="44.31137" lon="5.17306">
        <ele>761.5</ele>
        <time>2013-07-19T05:45:31Z</time>
      </trkpt>
      <trkpt lat="44.31156" lon="5.17318">
        <ele>763.9</ele>
        <time>2013-07-19T05:45:42Z</time>
      </trkpt>
      <trkpt lat="44.31158" lon="5.17319">
        <ele>763.9</ele>
        <time>2013-07-19T05:45:43Z</time>
      </trkpt>
      <trkpt lat="44.31179" lon="5.17336">
        <ele>766.79</ele>
        <time>2013-07-19T05:45:54Z</time>
      </trkpt>
      <trkpt lat="44.3118" lon="5.17337">
        <ele>767.27</ele>
        <time>2013-07-19T05:45:55Z</time>
      </trkpt>
      <trkpt lat="44.31189" lon="5.17344">
        <ele>768.23</ele>
        <time>2013-07-19T05:46:01Z</time>
      </trkpt>
      <trkpt lat="44.31209" lon="5.17355">
        <ele>770.15</ele>
        <time>2013-07-19T05:46:12Z</time>
      </trkpt>
      <trkpt lat="44.31233" lon="5.17362">
        <ele>772.08</ele>
        <time>2013-07-19T05:46:24Z</time>
      </trkpt>
      <trkpt lat="44.31251" lon="5.17366">
        <ele>773.52</ele>
        <time>2013-07-19T05:46:33Z</time>
      </trkpt>
      <trkpt lat="44.31278" lon="5.17372">
        <ele>776.88</ele>
        <time>2013-07-19T05:46:47Z</time>
      </trkpt>
      <trkpt lat="44.3129" lon="5.17371">
        <ele>778.32</ele>
        <time>2013-07-19T05:46:52Z</time>
      </trkpt>
      <trkpt lat="44.31294" lon="5.1737">
        <ele>779.29</ele>
        <time>2013-07-19T05:46:55Z</time>
      </trkpt>
      <trkpt lat="44.31307" lon="5.17368">
        <ele>780.73</ele>
        <time>2013-07-19T05:47:01Z</time>
      </trkpt>
      <trkpt lat="44.31315" lon="5.17363">
        <ele>782.17</ele>
        <time>2013-07-19T05:47:07Z</time>
      </trkpt>
      <trkpt lat="44.3133" lon="5.17349">
        <ele>781.69</ele>
        <time>2013-07-19T05:47:16Z</time>
      </trkpt>
      <trkpt lat="44.31333" lon="5.17347">
        <ele>781.69</ele>
        <time>2013-07-19T05:47:18Z</time>
      </trkpt>
      <trkpt lat="44.31354" lon="5.17324">
        <ele>781.21</ele>
        <time>2013-07-19T05:47:30Z</time>
      </trkpt>
      <trkpt lat="44.31387" lon="5.1729">
        <ele>779.77</ele>
        <time>2013-07-19T05:47:45Z</time>
      </trkpt>
      <trkpt lat="44.31405" lon="5.17246">
        <ele>782.17</ele>
        <time>2013-07-19T05:47:59Z</time>
      </trkpt>
      <trkpt lat="44.31418" lon="5.17207">
        <ele>786.02</ele>
        <time>2013-07-19T05:48:14Z</time>
      </trkpt>
      <trkpt lat="44.31432" lon="5.17174">
        <ele>788.9</ele>
        <time>2013-07-19T05:48:27Z</time>
      </trkpt>
      <trkpt lat="44.31433" lon="5.17172">
        <ele>788.9</ele>
        <time>2013-07-19T05:48:28Z</time>
      </trkpt>
      <trkpt lat="44.31436" lon="5.17164">
        <ele>790.34</ele>
        <time>2013-07-19T05:48:31Z</time>
      </trkpt>
      <trkpt lat="44.3145" lon="5.17134">
        <ele>793.71</ele>
        <time>2013-07-19T05:48:45Z</time>
      </trkpt>
      <trkpt lat="44.31462" lon="5.17102">
        <ele>796.11</ele>
        <time>2013-07-19T05:48:58Z</time>
      </trkpt>
      <trkpt lat="44.31473" lon="5.17062">
        <ele>797.55</ele>
        <time>2013-07-19T05:49:13Z</time>
      </trkpt>
      <trkpt lat="44.31497" lon="5.17041">
        <ele>800.44</ele>
        <time>2013-07-19T05:49:27Z</time>
      </trkpt>
      <trkpt lat="44.31512" lon="5.17029">
        <ele>803.8</ele>
        <time>2013-07-19T05:49:36Z</time>
      </trkpt>
      <trkpt lat="44.31514" lon="5.17019">
        <ele>803.8</ele>
        <time>2013-07-19T05:49:48Z</time>
      </trkpt>
      <trkpt lat="44.31514" lon="5.17021">
        <ele>804.28</ele>
        <time>2013-07-19T05:50:01Z</time>
      </trkpt>
      <trkpt lat="44.31514" lon="5.17021">
        <ele>805.24</ele>
        <time>2013-07-19T05:50:11Z</time>
      </trkpt>
      <trkpt lat="44.31513" lon="5.1702">
        <ele>801.4</ele>
        <time>2013-07-19T05:50:15Z</time>
      </trkpt>
      <trkpt lat="44.31513" lon="5.1702">
        <ele>805.72</ele>
        <time>2013-07-19T05:50:18Z</time>
      </trkpt>
      <trkpt lat="44.31513" lon="5.1702">
        <ele>801.88</ele>
        <time>2013-07-19T05:50:19Z</time>
      </trkpt>
      <trkpt lat="44.31513" lon="5.1702">
        <ele>805.24</ele>
        <time>2013-07-19T05:50:21Z</time>
      </trkpt>
      <trkpt lat="44.31513" lon="5.1702">
        <ele>809.09</ele>
        <time>2013-07-19T05:50:22Z</time>
      </trkpt>
      <trkpt lat="44.31513" lon="5.1702">
        <ele>807.64</ele>
        <time>2013-07-19T05:50:23Z</time>
      </trkpt>
      <trkpt lat="44.31512" lon="5.1702">
        <ele>802.36</ele>
        <time>2013-07-19T05:50:24Z</time>
      </trkpt>
      <trkpt lat="44.31512" lon="5.1702">
        <ele>805.72</ele>
        <time>2013-07-19T05:50:25Z</time>
      </trkpt>
      <trkpt lat="44.31512" lon="5.1702">
        <ele>799.95</ele>
        <time>2013-07-19T05:50:26Z</time>
      </trkpt>
      <trkpt lat="44.31512" lon="5.1702">
        <ele>800.92</ele>
        <time>2013-07-19T05:50:27Z</time>
      </trkpt>
      <trkpt lat="44.31512" lon="5.1702">
        <ele>805.72</ele>
        <time>2013-07-19T05:50:28Z</time>
      </trkpt>
      <trkpt lat="44.31512" lon="5.1702">
        <ele>805.24</ele>
        <time>2013-07-19T05:50:29Z</time>
      </trkpt>
      <trkpt lat="44.31512" lon="5.17019">
        <ele>805.24</ele>
        <time>2013-07-19T05:50:42Z</time>
      </trkpt>
      <trkpt lat="44.31512" lon="5.1702">
        <ele>804.28</ele>
        <time>2013-07-19T05:50:57Z</time>
      </trkpt>
      <trkpt lat="44.31512" lon="5.1702">
        <ele>804.76</ele>
        <time>2013-07-19T05:51:09Z</time>
      </trkpt>
      <trkpt lat="44.31514" lon="5.1702">
        <ele>804.76</ele>
        <time>2013-07-19T05:51:36Z</time>
      </trkpt>
      <trkpt lat="44.31514" lon="5.1702">
        <ele>805.24</ele>
        <time>2013-07-19T05:51:58Z</time>
      </trkpt>
      <trkpt lat="44.31513" lon="5.17022">
        <ele>804.76</ele>
        <time>2013-07-19T05:52:11Z</time>
      </trkpt>
      <trkpt lat="44.31513" lon="5.17022">
        <ele>801.88</ele>
        <time>2013-07-19T05:52:30Z</time>
      </trkpt>
      <trkpt lat="44.31513" lon="5.17022">
        <ele>805.72</ele>
        <time>2013-07-19T05:52:31Z</time>
      </trkpt>
      <trkpt lat="44.31515" lon="5.17019">
        <ele>802.36</ele>
        <time>2013-07-19T05:52:45Z</time>
      </trkpt>
      <trkpt lat="44.31515" lon="5.17019">
        <ele>808.13</ele>
        <time>2013-07-19T05:52:47Z</time>
      </trkpt>
      <trkpt lat="44.31515" lon="5.17019">
        <ele>805.72</ele>
        <time>2013-07-19T05:52:48Z</time>
      </trkpt>
      <trkpt lat="44.31515" lon="5.17019">
        <ele>802.36</ele>
        <time>2013-07-19T05:52:50Z</time>
      </trkpt>
      <trkpt lat="44.31515" lon="5.17019">
        <ele>806.2</ele>
        <time>2013-07-19T05:52:52Z</time>
      </trkpt>
      <trkpt lat="44.31515" lon="5.17019">
        <ele>805.72</ele>
        <time>2013-07-19T05:52:53Z</time>
      </trkpt>
      <trkpt lat="44.31515" lon="5.17018">
        <ele>805.72</ele>
        <time>2013-07-19T05:53:17Z</time>
      </trkpt>
      <trkpt lat="44.31515" lon="5.17009">
        <ele>805.24</ele>
        <time>2013-07-19T05:53:30Z</time>
      </trkpt>
      <trkpt lat="44.31519" lon="5.16993">
        <ele>802.84</ele>
        <time>2013-07-19T05:53:47Z</time>
      </trkpt>
      <trkpt lat="44.31525" lon="5.16981">
        <ele>799.95</ele>
        <time>2013-07-19T05:53:58Z</time>
      </trkpt>
      <trkpt lat="44.31537" lon="5.16946">
        <ele>797.55</ele>
        <time>2013-07-19T05:54:11Z</time>
      </trkpt>
      <trkpt lat="44.31535" lon="5.16886">
        <ele>794.67</ele>
        <time>2013-07-19T05:54:31Z</time>
      </trkpt>
      <trkpt lat="44.31533" lon="5.16855">
        <ele>792.74</ele>
        <time>2013-07-19T05:54:41Z</time>
      </trkpt>
      <trkpt lat="44.31536" lon="5.16814">
        <ele>789.86</ele>
        <time>2013-07-19T05:54:54Z</time>
      </trkpt>
      <trkpt lat="44.31536" lon="5.16808">
        <ele>789.38</ele>
        <time>2013-07-19T05:54:56Z</time>
      </trkpt>
      <trkpt lat="44.31538" lon="5.16802">
        <ele>787.94</ele>
        <time>2013-07-19T05:54:59Z</time>
      </trkpt>
      <trkpt lat="44.31546" lon="5.16778">
        <ele>784.57</ele>
        <time>2013-07-19T05:55:08Z</time>
      </trkpt>
      <trkpt lat="44.31552" lon="5.16754">
        <ele>781.21</ele>
        <time>2013-07-19T05:55:18Z</time>
      </trkpt>
      <trkpt lat="44.31554" lon="5.16746">
        <ele>779.77</ele>
        <time>2013-07-19T05:55:21Z</time>
      </trkpt>
      <trkpt lat="44.31554" lon="5.16743">
        <ele>779.29</ele>
        <time>2013-07-19T05:55:22Z</time>
      </trkpt>
      <trkpt lat="44.31557" lon="5.16697">
        <ele>776.4</ele>
        <time>2013-07-19T05:55:38Z</time>
      </trkpt>
      <trkpt lat="44.31556" lon="5.16688">
        <ele>776.88</ele>
        <time>2013-07-19T05:55:41Z</time>
      </trkpt>
      <trkpt lat="44.31542" lon="5.16637">
        <ele>774.96</ele>
        <time>2013-07-19T05:55:57Z</time>
      </trkpt>
      <trkpt lat="44.31541" lon="5.16629">
        <ele>773.52</ele>
        <time>2013-07-19T05:55:59Z</time>
      </trkpt>
      <trkpt lat="44.31543" lon="5.16616">
        <ele>771.6</ele>
        <time>2013-07-19T05:56:03Z</time>
      </trkpt>
      <trkpt lat="44.31551" lon="5.16573">
        <ele>769.19</ele>
        <time>2013-07-19T05:56:15Z</time>
      </trkpt>
      <trkpt lat="44.31553" lon="5.16552">
        <ele>766.79</ele>
        <time>2013-07-19T05:56:22Z</time>
      </trkpt>
      <trkpt lat="44.31553" lon="5.16531">
        <ele>765.35</ele>
        <time>2013-07-19T05:56:29Z</time>
      </trkpt>
      <trkpt lat="44.3155" lon="5.16504">
        <ele>763.42</ele>
        <time>2013-07-19T05:56:36Z</time>
      </trkpt>
      <trkpt lat="44.31552" lon="5.16476">
        <ele>761.02</ele>
        <time>2013-07-19T05:56:43Z</time>
      </trkpt>
      <trkpt lat="44.3156" lon="5.16423">
        <ele>758.14</ele>
        <time>2013-07-19T05:56:57Z</time>
      </trkpt>
      <trkpt lat="44.31576" lon="5.16375">
        <ele>754.77</ele>
        <time>2013-07-19T05:57:11Z</time>
      </trkpt>
      <trkpt lat="44.31584" lon="5.16358">
        <ele>752.85</ele>
        <time>2013-07-19T05:57:16Z</time>
      </trkpt>
      <trkpt lat="44.31597" lon="5.16307">
        <ele>749.97</ele>
        <time>2013-07-19T05:57:32Z</time>
      </trkpt>
      <trkpt lat="44.31607" lon="5.1628">
        <ele>747.08</ele>
        <time>2013-07-19T05:57:42Z</time>
      </trkpt>
      <trkpt lat="44.31607" lon="5.16258">
        <ele>745.64</ele>
        <time>2013-07-19T05:57:57Z</time>
      </trkpt>
      <trkpt lat="44.316" lon="5.16257">
        <ele>743.24</ele>
        <time>2013-07-19T05:58:03Z</time>
      </trkpt>
      <trkpt lat="44.31583" lon="5.16257">
        <ele>740.35</ele>
        <time>2013-07-19T05:58:11Z</time>
      </trkpt>
      <trkpt lat="44.3158" lon="5.16257">
        <ele>740.35</ele>
        <time>2013-07-19T05:58:12Z</time>
      </trkpt>
      <trkpt lat="44.31566" lon="5.16259">
        <ele>738.43</ele>
        <time>2013-07-19T05:58:17Z</time>
      </trkpt>
      <trkpt lat="44.31539" lon="5.16258">
        <ele>735.07</ele>
        <time>2013-07-19T05:58:28Z</time>
      </trkpt>
      <trkpt lat="44.31528" lon="5.16251">
        <ele>731.7</ele>
        <time>2013-07-19T05:58:34Z</time>
      </trkpt>
      <trkpt lat="44.31517" lon="5.1624">
        <ele>728.34</ele>
        <time>2013-07-19T05:58:40Z</time>
      </trkpt>
      <trkpt lat="44.31513" lon="5.16234">
        <ele>727.86</ele>
        <time>2013-07-19T05:58:42Z</time>
      </trkpt>
      <trkpt lat="44.31483" lon="5.16221">
        <ele>724.49</ele>
        <time>2013-07-19T05:58:56Z</time>
      </trkpt>
      <trkpt lat="44.31476" lon="5.16217">
        <ele>723.05</ele>
        <time>2013-07-19T05:59:00Z</time>
      </trkpt>
      <trkpt lat="44.31473" lon="5.16204">
        <ele>720.65</ele>
        <time>2013-07-19T05:59:05Z</time>
      </trkpt>
      <trkpt lat="44.31471" lon="5.1618">
        <ele>717.28</ele>
        <time>2013-07-19T05:59:13Z</time>
      </trkpt>
      <trkpt lat="44.31468" lon="5.16166">
        <ele>714.88</ele>
        <time>2013-07-19T05:59:18Z</time>
      </trkpt>
      <trkpt lat="44.31466" lon="5.16158">
        <ele>713.44</ele>
        <time>2013-07-19T05:59:21Z</time>
      </trkpt>
      <trkpt lat="44.31462" lon="5.16146">
        <ele>710.55</ele>
        <time>2013-07-19T05:59:26Z</time>
      </trkpt>
      <trkpt lat="44.31454" lon="5.1612">
        <ele>707.67</ele>
        <time>2013-07-19T05:59:34Z</time>
      </trkpt>
      <trkpt lat="44.31452" lon="5.16104">
        <ele>706.23</ele>
        <time>2013-07-19T05:59:39Z</time>
      </trkpt>
      <trkpt lat="44.31449" lon="5.16089">
        <ele>703.82</ele>
        <time>2013-07-19T05:59:44Z</time>
      </trkpt>
      <trkpt lat="44.31445" lon="5.16077">
        <ele>700.94</ele>
        <time>2013-07-19T05:59:49Z</time>
      </trkpt>
      <trkpt lat="44.31442" lon="5.16074">
        <ele>699.98</ele>
        <time>2013-07-19T05:59:51Z</time>
      </trkpt>
      <trkpt lat="44.31436" lon="5.16057">
        <ele>696.61</ele>
        <time>2013-07-19T05:59:58Z</time>
      </trkpt>
      <trkpt lat="44.31435" lon="5.16052">
        <ele>695.65</ele>
        <time>2013-07-19T06:00:00Z</time>
      </trkpt>
      <trkpt lat="44.31435" lon="5.16047">
        <ele>694.21</ele>
        <time>2013-07-19T06:00:02Z</time>
      </trkpt>
      <trkpt lat="44.31437" lon="5.1603">
        <ele>690.84</ele>
        <time>2013-07-19T06:00:08Z</time>
      </trkpt>
      <trkpt lat="44.31437" lon="5.16018">
        <ele>688.92</ele>
        <time>2013-07-19T06:00:12Z</time>
      </trkpt>
      <trkpt lat="44.31436" lon="5.15998">
        <ele>686.04</ele>
        <time>2013-07-19T06:00:19Z</time>
      </trkpt>
      <trkpt lat="44.31436" lon="5.15995">
        <ele>685.56</ele>
        <time>2013-07-19T06:00:20Z</time>
      </trkpt>
      <trkpt lat="44.31435" lon="5.15973">
        <ele>682.67</ele>
        <time>2013-07-19T06:00:27Z</time>
      </trkpt>
      <trkpt lat="44.31433" lon="5.15957">
        <ele>680.27</ele>
        <time>2013-07-19T06:00:33Z</time>
      </trkpt>
      <trkpt lat="44.31432" lon="5.1594">
        <ele>676.91</ele>
        <time>2013-07-19T06:00:40Z</time>
      </trkpt>
      <trkpt lat="44.31431" lon="5.1592">
        <ele>673.54</ele>
        <time>2013-07-19T06:00:48Z</time>
      </trkpt>
      <trkpt lat="44.3143" lon="5.159">
        <ele>670.18</ele>
        <time>2013-07-19T06:00:55Z</time>
      </trkpt>
      <trkpt lat="44.3143" lon="5.15897">
        <ele>670.18</ele>
        <time>2013-07-19T06:00:56Z</time>
      </trkpt>
      <trkpt lat="44.31428" lon="5.15879">
        <ele>667.29</ele>
        <time>2013-07-19T06:01:03Z</time>
      </trkpt>
      <trkpt lat="44.31427" lon="5.15873">
        <ele>666.33</ele>
        <time>2013-07-19T06:01:05Z</time>
      </trkpt>
      <trkpt lat="44.31425" lon="5.15856">
        <ele>662.97</ele>
        <time>2013-07-19T06:01:12Z</time>
      </trkpt>
      <trkpt lat="44.31424" lon="5.1585">
        <ele>662.01</ele>
        <time>2013-07-19T06:01:14Z</time>
      </trkpt>
      <trkpt lat="44.31422" lon="5.15829">
        <ele>658.64</ele>
        <time>2013-07-19T06:01:21Z</time>
      </trkpt>
      <trkpt lat="44.31421" lon="5.15825">
        <ele>658.64</ele>
        <time>2013-07-19T06:01:22Z</time>
      </trkpt>
      <trkpt lat="44.3142" lon="5.15804">
        <ele>654.8</ele>
        <time>2013-07-19T06:01:29Z</time>
      </trkpt>
      <trkpt lat="44.31414" lon="5.15775">
        <ele>651.43</ele>
        <time>2013-07-19T06:01:37Z</time>
      </trkpt>
      <trkpt lat="44.31409" lon="5.1574">
        <ele>648.07</ele>
        <time>2013-07-19T06:01:47Z</time>
      </trkpt>
      <trkpt lat="44.31408" lon="5.15716">
        <ele>645.18</ele>
        <time>2013-07-19T06:01:55Z</time>
      </trkpt>
      <trkpt lat="44.31405" lon="5.15689">
        <ele>642.3</ele>
        <time>2013-07-19T06:02:02Z</time>
      </trkpt>
      <trkpt lat="44.31397" lon="5.15653">
        <ele>639.41</ele>
        <time>2013-07-19T06:02:13Z</time>
      </trkpt>
      <trkpt lat="44.31396" lon="5.15644">
        <ele>637.97</ele>
        <time>2013-07-19T06:02:16Z</time>
      </trkpt>
      <trkpt lat="44.31393" lon="5.15622">
        <ele>635.09</ele>
        <time>2013-07-19T06:02:24Z</time>
      </trkpt>
      <trkpt lat="44.31391" lon="5.15606">
        <ele>632.68</ele>
        <time>2013-07-19T06:02:29Z</time>
      </trkpt>
      <trkpt lat="44.31386" lon="5.15577">
        <ele>629.32</ele>
        <time>2013-07-19T06:02:37Z</time>
      </trkpt>
      <trkpt lat="44.31385" lon="5.15569">
        <ele>627.88</ele>
        <time>2013-07-19T06:02:40Z</time>
      </trkpt>
      <trkpt lat="44.31384" lon="5.15556">
        <ele>626.44</ele>
        <time>2013-07-19T06:02:44Z</time>
      </trkpt>
      <trkpt lat="44.3138" lon="5.15529">
        <ele>623.07</ele>
        <time>2013-07-19T06:02:52Z</time>
      </trkpt>
      <trkpt lat="44.3138" lon="5.15505">
        <ele>619.71</ele>
        <time>2013-07-19T06:02:59Z</time>
      </trkpt>
      <trkpt lat="44.31379" lon="5.15485">
        <ele>616.34</ele>
        <time>2013-07-19T06:03:06Z</time>
      </trkpt>
      <trkpt lat="44.31376" lon="5.1546">
        <ele>613.46</ele>
        <time>2013-07-19T06:03:14Z</time>
      </trkpt>
      <trkpt lat="44.31377" lon="5.15445">
        <ele>610.57</ele>
        <time>2013-07-19T06:03:19Z</time>
      </trkpt>
      <trkpt lat="44.31376" lon="5.15421">
        <ele>606.73</ele>
        <time>2013-07-19T06:03:26Z</time>
      </trkpt>
      <trkpt lat="44.31376" lon="5.15418">
        <ele>606.73</ele>
        <time>2013-07-19T06:03:27Z</time>
      </trkpt>
      <trkpt lat="44.31372" lon="5.15382">
        <ele>602.88</ele>
        <time>2013-07-19T06:03:37Z</time>
      </trkpt>
      <trkpt lat="44.31369" lon="5.15359">
        <ele>599.52</ele>
        <time>2013-07-19T06:03:45Z</time>
      </trkpt>
      <trkpt lat="44.31362" lon="5.15326">
        <ele>597.12</ele>
        <time>2013-07-19T06:03:56Z</time>
      </trkpt>
      <trkpt lat="44.31361" lon="5.15312">
        <ele>595.67</ele>
        <time>2013-07-19T06:04:00Z</time>
      </trkpt>
      <trkpt lat="44.31355" lon="5.15274">
        <ele>592.31</ele>
        <time>2013-07-19T06:04:10Z</time>
      </trkpt>
      <trkpt lat="44.31348" lon="5.1524">
        <ele>589.43</ele>
        <time>2013-07-19T06:04:20Z</time>
      </trkpt>
      <trkpt lat="44.31346" lon="5.15229">
        <ele>587.98</ele>
        <time>2013-07-19T06:04:23Z</time>
      </trkpt>
      <trkpt lat="44.31339" lon="5.1519">
        <ele>584.62</ele>
        <time>2013-07-19T06:04:34Z</time>
      </trkpt>
      <trkpt lat="44.31338" lon="5.15177">
        <ele>583.18</ele>
        <time>2013-07-19T06:04:38Z</time>
      </trkpt>
      <trkpt lat="44.31335" lon="5.15155">
        <ele>579.81</ele>
        <time>2013-07-19T06:04:45Z</time>
      </trkpt>
      <trkpt lat="44.3133" lon="5.15139">
        <ele>577.89</ele>
        <time>2013-07-19T06:04:50Z</time>
      </trkpt>
      <trkpt lat="44.31327" lon="5.15129">
        <ele>576.45</ele>
        <time>2013-07-19T06:04:53Z</time>
      </trkpt>
      <trkpt lat="44.31323" lon="5.15102">
        <ele>573.08</ele>
        <time>2013-07-19T06:05:01Z</time>
      </trkpt>
      <trkpt lat="44.31322" lon="5.15094">
        <ele>572.6</ele>
        <time>2013-07-19T06:05:03Z</time>
      </trkpt>
      <trkpt lat="44.31321" lon="5.15085">
        <ele>570.68</ele>
        <time>2013-07-19T06:05:06Z</time>
      </trkpt>
      <trkpt lat="44.31321" lon="5.15078">
        <ele>569.24</ele>
        <time>2013-07-19T06:05:09Z</time>
      </trkpt>
      <trkpt lat="44.31318" lon="5.15066">
        <ele>567.32</ele>
        <time>2013-07-19T06:05:14Z</time>
      </trkpt>
      <trkpt lat="44.31313" lon="5.15045">
        <ele>563.95</ele>
        <time>2013-07-19T06:05:19Z</time>
      </trkpt>
      <trkpt lat="44.31312" lon="5.15026">
        <ele>561.07</ele>
        <time>2013-07-19T06:05:25Z</time>
      </trkpt>
      <trkpt lat="44.31313" lon="5.15023">
        <ele>561.07</ele>
        <time>2013-07-19T06:05:26Z</time>
      </trkpt>
      <trkpt lat="44.31313" lon="5.15014">
        <ele>559.14</ele>
        <time>2013-07-19T06:05:29Z</time>
      </trkpt>
      <trkpt lat="44.31312" lon="5.15004">
        <ele>557.7</ele>
        <time>2013-07-19T06:05:32Z</time>
      </trkpt>
      <trkpt lat="44.31311" lon="5.14982">
        <ele>554.34</ele>
        <time>2013-07-19T06:05:40Z</time>
      </trkpt>
      <trkpt lat="44.31306" lon="5.14954">
        <ele>551.45</ele>
        <time>2013-07-19T06:05:49Z</time>
      </trkpt>
      <trkpt lat="44.31298" lon="5.14922">
        <ele>547.61</ele>
        <time>2013-07-19T06:05:58Z</time>
      </trkpt>
      <trkpt lat="44.31281" lon="5.14876">
        <ele>544.72</ele>
        <time>2013-07-19T06:06:10Z</time>
      </trkpt>
      <trkpt lat="44.3127" lon="5.14846">
        <ele>541.84</ele>
        <time>2013-07-19T06:06:20Z</time>
      </trkpt>
      <trkpt lat="44.31267" lon="5.14835">
        <ele>540.4</ele>
        <time>2013-07-19T06:06:24Z</time>
      </trkpt>
      <trkpt lat="44.31259" lon="5.1478">
        <ele>537.51</ele>
        <time>2013-07-19T06:06:38Z</time>
      </trkpt>
      <trkpt lat="44.31245" lon="5.14739">
        <ele>533.67</ele>
        <time>2013-07-19T06:06:50Z</time>
      </trkpt>
      <trkpt lat="44.31232" lon="5.14715">
        <ele>530.79</ele>
        <time>2013-07-19T06:06:59Z</time>
      </trkpt>
      <trkpt lat="44.31211" lon="5.1469">
        <ele>527.9</ele>
        <time>2013-07-19T06:07:08Z</time>
      </trkpt>
      <trkpt lat="44.31202" lon="5.14668">
        <ele>525.5</ele>
        <time>2013-07-19T06:07:14Z</time>
      </trkpt>
      <trkpt lat="44.31171" lon="5.14623">
        <ele>522.61</ele>
        <time>2013-07-19T06:07:29Z</time>
      </trkpt>
      <trkpt lat="44.31145" lon="5.14578">
        <ele>520.69</ele>
        <time>2013-07-19T06:07:45Z</time>
      </trkpt>
      <trkpt lat="44.31113" lon="5.14549">
        <ele>518.77</ele>
        <time>2013-07-19T06:07:59Z</time>
      </trkpt>
      <trkpt lat="44.31101" lon="5.1454">
        <ele>516.85</ele>
        <time>2013-07-19T06:08:04Z</time>
      </trkpt>
      <trkpt lat="44.31072" lon="5.14503">
        <ele>513.48</ele>
        <time>2013-07-19T06:08:17Z</time>
      </trkpt>
      <trkpt lat="44.31054" lon="5.14475">
        <ele>510.12</ele>
        <time>2013-07-19T06:08:27Z</time>
      </trkpt>
      <trkpt lat="44.31034" lon="5.14444">
        <ele>507.23</ele>
        <time>2013-07-19T06:08:38Z</time>
      </trkpt>
      <trkpt lat="44.31025" lon="5.14434">
        <ele>505.31</ele>
        <time>2013-07-19T06:08:42Z</time>
      </trkpt>
      <trkpt lat="44.31015" lon="5.14424">
        <ele>502.91</ele>
        <time>2013-07-19T06:08:46Z</time>
      </trkpt>
      <trkpt lat="44.30996" lon="5.14413">
        <ele>500.98</ele>
        <time>2013-07-19T06:08:53Z</time>
      </trkpt>
      <trkpt lat="44.30986" lon="5.144">
        <ele>497.62</ele>
        <time>2013-07-19T06:08:59Z</time>
      </trkpt>
      <trkpt lat="44.30985" lon="5.14378">
        <ele>494.74</ele>
        <time>2013-07-19T06:09:05Z</time>
      </trkpt>
      <trkpt lat="44.3098" lon="5.1434">
        <ele>491.37</ele>
        <time>2013-07-19T06:09:15Z</time>
      </trkpt>
      <trkpt lat="44.30957" lon="5.14298">
        <ele>488.01</ele>
        <time>2013-07-19T06:09:27Z</time>
      </trkpt>
      <trkpt lat="44.30951" lon="5.14292">
        <ele>487.05</ele>
        <time>2013-07-19T06:09:30Z</time>
      </trkpt>
      <trkpt lat="44.30935" lon="5.14278">
        <ele>484.16</ele>
        <time>2013-07-19T06:09:36Z</time>
      </trkpt>
      <trkpt lat="44.30927" lon="5.1426">
        <ele>480.8</ele>
        <time>2013-07-19T06:09:42Z</time>
      </trkpt>
      <trkpt lat="44.30925" lon="5.14254">
        <ele>479.84</ele>
        <time>2013-07-19T06:09:44Z</time>
      </trkpt>
      <trkpt lat="44.30921" lon="5.1424">
        <ele>477.91</ele>
        <time>2013-07-19T06:09:50Z</time>
      </trkpt>
      <trkpt lat="44.3091" lon="5.14226">
        <ele>474.55</ele>
        <time>2013-07-19T06:09:56Z</time>
      </trkpt>
      <trkpt lat="44.30907" lon="5.14224">
        <ele>474.55</ele>
        <time>2013-07-19T06:09:57Z</time>
      </trkpt>
      <trkpt lat="44.30892" lon="5.14199">
        <ele>471.18</ele>
        <time>2013-07-19T06:10:04Z</time>
      </trkpt>
      <trkpt lat="44.30887" lon="5.14179">
        <ele>467.82</ele>
        <time>2013-07-19T06:10:10Z</time>
      </trkpt>
      <trkpt lat="44.30886" lon="5.14176">
        <ele>467.82</ele>
        <time>2013-07-19T06:10:11Z</time>
      </trkpt>
      <trkpt lat="44.30884" lon="5.14173">
        <ele>467.34</ele>
        <time>2013-07-19T06:10:12Z</time>
      </trkpt>
      <trkpt lat="44.30877" lon="5.14162">
        <ele>465.42</ele>
        <time>2013-07-19T06:10:16Z</time>
      </trkpt>
      <trkpt lat="44.30865" lon="5.14151">
        <ele>462.53</ele>
        <time>2013-07-19T06:10:21Z</time>
      </trkpt>
      <trkpt lat="44.30839" lon="5.1413">
        <ele>459.17</ele>
        <time>2013-07-19T06:10:32Z</time>
      </trkpt>
      <trkpt lat="44.30823" lon="5.14107">
        <ele>456.28</ele>
        <time>2013-07-19T06:10:41Z</time>
      </trkpt>
      <trkpt lat="44.30809" lon="5.1408">
        <ele>452.92</ele>
        <time>2013-07-19T06:10:49Z</time>
      </trkpt>
      <trkpt lat="44.30801" lon="5.14055">
        <ele>450.03</ele>
        <time>2013-07-19T06:10:56Z</time>
      </trkpt>
      <trkpt lat="44.30797" lon="5.14045">
        <ele>449.07</ele>
        <time>2013-07-19T06:10:59Z</time>
      </trkpt>
      <trkpt lat="44.30782" lon="5.14029">
        <ele>445.71</ele>
        <time>2013-07-19T06:11:06Z</time>
      </trkpt>
      <trkpt lat="44.30772" lon="5.14016">
        <ele>443.79</ele>
        <time>2013-07-19T06:11:12Z</time>
      </trkpt>
      <trkpt lat="44.30765" lon="5.14007">
        <ele>441.86</ele>
        <time>2013-07-19T06:11:16Z</time>
      </trkpt>
      <trkpt lat="44.30759" lon="5.13997">
        <ele>439.46</ele>
        <time>2013-07-19T06:11:20Z</time>
      </trkpt>
      <trkpt lat="44.30747" lon="5.13978">
        <ele>436.58</ele>
        <time>2013-07-19T06:11:27Z</time>
      </trkpt>
      <trkpt lat="44.30719" lon="5.13947">
        <ele>433.21</ele>
        <time>2013-07-19T06:11:40Z</time>
      </trkpt>
      <trkpt lat="44.30706" lon="5.13945">
        <ele>431.77</ele>
        <time>2013-07-19T06:11:44Z</time>
      </trkpt>
      <trkpt lat="44.30676" lon="5.13947">
        <ele>430.33</ele>
        <time>2013-07-19T06:11:56Z</time>
      </trkpt>
      <trkpt lat="44.30675" lon="5.13975">
        <ele>433.69</ele>
        <time>2013-07-19T06:12:12Z</time>
      </trkpt>
      <trkpt lat="44.30671" lon="5.13999">
        <ele>437.06</ele>
        <time>2013-07-19T06:12:28Z</time>
      </trkpt>
      <trkpt lat="44.30671" lon="5.14018">
        <ele>438.98</ele>
        <time>2013-07-19T06:12:43Z</time>
      </trkpt>
      <trkpt lat="44.3067" lon="5.1402">
        <ele>439.46</ele>
        <time>2013-07-19T06:12:55Z</time>
      </trkpt>
      <trkpt lat="44.30668" lon="5.1402">
        <ele>438.98</ele>
        <time>2013-07-19T06:13:11Z</time>
      </trkpt>
      <trkpt lat="44.3067" lon="5.14018">
        <ele>438.98</ele>
        <time>2013-07-19T06:13:25Z</time>
      </trkpt>
    </trkseg>
  </trk>
</gpx>